<?xml version="1.0" encoding="UTF-8" standalone="no" ?>
<gpx xmlns="http://www.topografix.com/GPX/1/1" xmlns:xsi="http://www.w3.org/2001/XMLSchema-instance" xsi:schemaLocation="http://www.topografix.com/GPX/1/1 http://www.topografix.com/GPX/1/1/gpx.xsd" version="1.1" creator="VisuGPX - https://www.visugpx.com">
  <metadata>
    <name>Forêt de Saint-Germain - Route des pavillons - Lude</name>
    <desc><![CDATA[Parcours de 9 km]]></desc>
  </metadata>
  <trk>
    <name><![CDATA[Rte des Pavillons -Lude_R2]]></name>
    <trkseg>
      <trkpt lat="48.96098" lon="2.12747">
        <ele>13.9</ele>
        <time>2024-12-04T08:36:36Z</time>
      </trkpt>
      <trkpt lat="48.96095" lon="2.12739">
        <ele>13.96</ele>
        <time>2024-12-04T08:36:51Z</time>
      </trkpt>
      <trkpt lat="48.96099" lon="2.12737">
        <ele>13.99</ele>
        <time>2024-12-04T08:37:08Z</time>
      </trkpt>
      <trkpt lat="48.96099" lon="2.12738">
        <ele>13.76</ele>
        <time>2024-12-04T08:37:26Z</time>
      </trkpt>
      <trkpt lat="48.96096" lon="2.12732">
        <ele>13.65</ele>
        <time>2024-12-04T08:37:40Z</time>
      </trkpt>
      <trkpt lat="48.961" lon="2.12725">
        <ele>13.68</ele>
        <time>2024-12-04T08:37:47Z</time>
      </trkpt>
      <trkpt lat="48.96103" lon="2.12718">
        <ele>14</ele>
        <time>2024-12-04T08:37:52Z</time>
      </trkpt>
      <trkpt lat="48.96105" lon="2.12708">
        <ele>14.39</ele>
        <time>2024-12-04T08:37:58Z</time>
      </trkpt>
      <trkpt lat="48.96108" lon="2.12695">
        <ele>14.43</ele>
        <time>2024-12-04T08:38:05Z</time>
      </trkpt>
      <trkpt lat="48.96105" lon="2.12684">
        <ele>14.95</ele>
        <time>2024-12-04T08:38:18Z</time>
      </trkpt>
      <trkpt lat="48.96103" lon="2.12669">
        <ele>15.05</ele>
        <time>2024-12-04T08:38:31Z</time>
      </trkpt>
      <trkpt lat="48.96095" lon="2.12646">
        <ele>15.6</ele>
        <time>2024-12-04T08:38:47Z</time>
      </trkpt>
      <trkpt lat="48.9609" lon="2.12631">
        <ele>15.32</ele>
        <time>2024-12-04T08:38:58Z</time>
      </trkpt>
      <trkpt lat="48.96089" lon="2.12616">
        <ele>16.06</ele>
        <time>2024-12-04T08:39:06Z</time>
      </trkpt>
      <trkpt lat="48.96083" lon="2.12596">
        <ele>17.52</ele>
        <time>2024-12-04T08:39:18Z</time>
      </trkpt>
      <trkpt lat="48.96079" lon="2.1258">
        <ele>18.29</ele>
        <time>2024-12-04T08:39:27Z</time>
      </trkpt>
      <trkpt lat="48.96076" lon="2.12569">
        <ele>18.58</ele>
        <time>2024-12-04T08:39:33Z</time>
      </trkpt>
      <trkpt lat="48.9607" lon="2.12548">
        <ele>19.34</ele>
        <time>2024-12-04T08:39:43Z</time>
      </trkpt>
      <trkpt lat="48.96066" lon="2.12531">
        <ele>20.11</ele>
        <time>2024-12-04T08:39:51Z</time>
      </trkpt>
      <trkpt lat="48.96064" lon="2.12525">
        <ele>20.42</ele>
        <time>2024-12-04T08:39:54Z</time>
      </trkpt>
      <trkpt lat="48.96061" lon="2.12517">
        <ele>21.02</ele>
        <time>2024-12-04T08:39:59Z</time>
      </trkpt>
      <trkpt lat="48.96056" lon="2.12501">
        <ele>20.92</ele>
        <time>2024-12-04T08:40:08Z</time>
      </trkpt>
      <trkpt lat="48.96051" lon="2.12482">
        <ele>21.22</ele>
        <time>2024-12-04T08:40:19Z</time>
      </trkpt>
      <trkpt lat="48.96048" lon="2.12457">
        <ele>21.26</ele>
        <time>2024-12-04T08:40:31Z</time>
      </trkpt>
      <trkpt lat="48.96042" lon="2.12434">
        <ele>21.37</ele>
        <time>2024-12-04T08:40:42Z</time>
      </trkpt>
      <trkpt lat="48.96038" lon="2.1241">
        <ele>21.86</ele>
        <time>2024-12-04T08:40:56Z</time>
      </trkpt>
      <trkpt lat="48.96034" lon="2.12393">
        <ele>21.13</ele>
        <time>2024-12-04T08:41:03Z</time>
      </trkpt>
      <trkpt lat="48.9603" lon="2.12375">
        <ele>21.5</ele>
        <time>2024-12-04T08:41:11Z</time>
      </trkpt>
      <trkpt lat="48.96025" lon="2.12356">
        <ele>21.09</ele>
        <time>2024-12-04T08:41:22Z</time>
      </trkpt>
      <trkpt lat="48.96023" lon="2.12333">
        <ele>21.6</ele>
        <time>2024-12-04T08:41:33Z</time>
      </trkpt>
      <trkpt lat="48.9602" lon="2.12323">
        <ele>21.75</ele>
        <time>2024-12-04T08:41:37Z</time>
      </trkpt>
      <trkpt lat="48.96017" lon="2.12298">
        <ele>21.52</ele>
        <time>2024-12-04T08:41:46Z</time>
      </trkpt>
      <trkpt lat="48.96016" lon="2.12297">
        <ele>22.47</ele>
        <time>2024-12-04T08:41:47Z</time>
      </trkpt>
      <trkpt lat="48.96013" lon="2.12278">
        <ele>21.95</ele>
        <time>2024-12-04T08:41:56Z</time>
      </trkpt>
      <trkpt lat="48.96006" lon="2.12257">
        <ele>22.19</ele>
        <time>2024-12-04T08:42:08Z</time>
      </trkpt>
      <trkpt lat="48.95995" lon="2.1223">
        <ele>22.29</ele>
        <time>2024-12-04T08:42:21Z</time>
      </trkpt>
      <trkpt lat="48.95991" lon="2.12219">
        <ele>22.49</ele>
        <time>2024-12-04T08:42:28Z</time>
      </trkpt>
      <trkpt lat="48.95987" lon="2.12202">
        <ele>22.25</ele>
        <time>2024-12-04T08:42:40Z</time>
      </trkpt>
      <trkpt lat="48.95981" lon="2.1217">
        <ele>22.34</ele>
        <time>2024-12-04T08:42:52Z</time>
      </trkpt>
      <trkpt lat="48.95975" lon="2.12149">
        <ele>22.09</ele>
        <time>2024-12-04T08:43:02Z</time>
      </trkpt>
      <trkpt lat="48.95972" lon="2.12139">
        <ele>22.15</ele>
        <time>2024-12-04T08:43:06Z</time>
      </trkpt>
      <trkpt lat="48.9597" lon="2.12134">
        <ele>22.31</ele>
        <time>2024-12-04T08:43:09Z</time>
      </trkpt>
      <trkpt lat="48.95966" lon="2.12106">
        <ele>22.58</ele>
        <time>2024-12-04T08:43:22Z</time>
      </trkpt>
      <trkpt lat="48.95965" lon="2.12101">
        <ele>22.66</ele>
        <time>2024-12-04T08:43:24Z</time>
      </trkpt>
      <trkpt lat="48.95963" lon="2.12092">
        <ele>22.19</ele>
        <time>2024-12-04T08:43:28Z</time>
      </trkpt>
      <trkpt lat="48.95958" lon="2.12087">
        <ele>21.57</ele>
        <time>2024-12-04T08:43:37Z</time>
      </trkpt>
      <trkpt lat="48.95955" lon="2.12088">
        <ele>21.71</ele>
        <time>2024-12-04T08:43:50Z</time>
      </trkpt>
      <trkpt lat="48.95954" lon="2.12085">
        <ele>21.97</ele>
        <time>2024-12-04T08:44:09Z</time>
      </trkpt>
      <trkpt lat="48.95955" lon="2.12084">
        <ele>21.43</ele>
        <time>2024-12-04T08:44:10Z</time>
      </trkpt>
      <trkpt lat="48.95957" lon="2.12077">
        <ele>22.09</ele>
        <time>2024-12-04T08:44:21Z</time>
      </trkpt>
      <trkpt lat="48.95956" lon="2.12075">
        <ele>21.91</ele>
        <time>2024-12-04T08:44:38Z</time>
      </trkpt>
      <trkpt lat="48.95952" lon="2.12081">
        <ele>21.47</ele>
        <time>2024-12-04T08:44:45Z</time>
      </trkpt>
      <trkpt lat="48.95945" lon="2.12101">
        <ele>21.98</ele>
        <time>2024-12-04T08:44:54Z</time>
      </trkpt>
      <trkpt lat="48.95939" lon="2.12113">
        <ele>21.73</ele>
        <time>2024-12-04T08:45:02Z</time>
      </trkpt>
      <trkpt lat="48.95937" lon="2.12122">
        <ele>22.1</ele>
        <time>2024-12-04T08:45:07Z</time>
      </trkpt>
      <trkpt lat="48.95937" lon="2.12132">
        <ele>22.15</ele>
        <time>2024-12-04T08:45:12Z</time>
      </trkpt>
      <trkpt lat="48.95933" lon="2.12151">
        <ele>21.5</ele>
        <time>2024-12-04T08:45:22Z</time>
      </trkpt>
      <trkpt lat="48.95927" lon="2.12174">
        <ele>21.51</ele>
        <time>2024-12-04T08:45:32Z</time>
      </trkpt>
      <trkpt lat="48.95925" lon="2.12186">
        <ele>20.96</ele>
        <time>2024-12-04T08:45:38Z</time>
      </trkpt>
      <trkpt lat="48.9592" lon="2.12203">
        <ele>21.55</ele>
        <time>2024-12-04T08:45:45Z</time>
      </trkpt>
      <trkpt lat="48.95913" lon="2.12221">
        <ele>21.03</ele>
        <time>2024-12-04T08:45:56Z</time>
      </trkpt>
      <trkpt lat="48.95905" lon="2.12234">
        <ele>21.33</ele>
        <time>2024-12-04T08:46:06Z</time>
      </trkpt>
      <trkpt lat="48.95904" lon="2.1224">
        <ele>21.18</ele>
        <time>2024-12-04T08:46:09Z</time>
      </trkpt>
      <trkpt lat="48.95897" lon="2.12259">
        <ele>20.85</ele>
        <time>2024-12-04T08:46:17Z</time>
      </trkpt>
      <trkpt lat="48.95891" lon="2.12271">
        <ele>20.5</ele>
        <time>2024-12-04T08:46:23Z</time>
      </trkpt>
      <trkpt lat="48.95884" lon="2.12288">
        <ele>20.08</ele>
        <time>2024-12-04T08:46:33Z</time>
      </trkpt>
      <trkpt lat="48.95883" lon="2.1229">
        <ele>19.87</ele>
        <time>2024-12-04T08:46:34Z</time>
      </trkpt>
      <trkpt lat="48.95882" lon="2.12302">
        <ele>19.69</ele>
        <time>2024-12-04T08:46:40Z</time>
      </trkpt>
      <trkpt lat="48.95878" lon="2.12321">
        <ele>19.29</ele>
        <time>2024-12-04T08:46:50Z</time>
      </trkpt>
      <trkpt lat="48.95874" lon="2.12329">
        <ele>19.15</ele>
        <time>2024-12-04T08:46:55Z</time>
      </trkpt>
      <trkpt lat="48.95864" lon="2.12352">
        <ele>17.87</ele>
        <time>2024-12-04T08:47:07Z</time>
      </trkpt>
      <trkpt lat="48.95854" lon="2.12372">
        <ele>16.93</ele>
        <time>2024-12-04T08:47:17Z</time>
      </trkpt>
      <trkpt lat="48.95848" lon="2.1239">
        <ele>16.2</ele>
        <time>2024-12-04T08:47:28Z</time>
      </trkpt>
      <trkpt lat="48.95839" lon="2.12414">
        <ele>15.37</ele>
        <time>2024-12-04T08:47:40Z</time>
      </trkpt>
      <trkpt lat="48.95828" lon="2.12436">
        <ele>14.22</ele>
        <time>2024-12-04T08:47:51Z</time>
      </trkpt>
      <trkpt lat="48.95825" lon="2.12442">
        <ele>14.07</ele>
        <time>2024-12-04T08:47:54Z</time>
      </trkpt>
      <trkpt lat="48.95819" lon="2.12452">
        <ele>13.67</ele>
        <time>2024-12-04T08:48:00Z</time>
      </trkpt>
      <trkpt lat="48.95812" lon="2.12471">
        <ele>13.93</ele>
        <time>2024-12-04T08:48:09Z</time>
      </trkpt>
      <trkpt lat="48.95808" lon="2.1249">
        <ele>14.84</ele>
        <time>2024-12-04T08:48:18Z</time>
      </trkpt>
      <trkpt lat="48.95805" lon="2.12506">
        <ele>14.21</ele>
        <time>2024-12-04T08:48:25Z</time>
      </trkpt>
      <trkpt lat="48.95802" lon="2.12512">
        <ele>14.07</ele>
        <time>2024-12-04T08:48:28Z</time>
      </trkpt>
      <trkpt lat="48.95794" lon="2.12526">
        <ele>13.97</ele>
        <time>2024-12-04T08:48:39Z</time>
      </trkpt>
      <trkpt lat="48.95787" lon="2.12541">
        <ele>14.26</ele>
        <time>2024-12-04T08:48:49Z</time>
      </trkpt>
      <trkpt lat="48.95781" lon="2.12561">
        <ele>13.83</ele>
        <time>2024-12-04T08:49:01Z</time>
      </trkpt>
      <trkpt lat="48.95776" lon="2.12584">
        <ele>13.97</ele>
        <time>2024-12-04T08:49:11Z</time>
      </trkpt>
      <trkpt lat="48.95773" lon="2.12598">
        <ele>13.23</ele>
        <time>2024-12-04T08:49:17Z</time>
      </trkpt>
      <trkpt lat="48.95769" lon="2.12616">
        <ele>14.09</ele>
        <time>2024-12-04T08:49:24Z</time>
      </trkpt>
      <trkpt lat="48.95766" lon="2.12637">
        <ele>14.5</ele>
        <time>2024-12-04T08:49:35Z</time>
      </trkpt>
      <trkpt lat="48.95765" lon="2.12643">
        <ele>14.59</ele>
        <time>2024-12-04T08:49:38Z</time>
      </trkpt>
      <trkpt lat="48.95759" lon="2.12658">
        <ele>14.4</ele>
        <time>2024-12-04T08:49:46Z</time>
      </trkpt>
      <trkpt lat="48.95749" lon="2.12674">
        <ele>14.29</ele>
        <time>2024-12-04T08:49:58Z</time>
      </trkpt>
      <trkpt lat="48.95738" lon="2.12686">
        <ele>14.3</ele>
        <time>2024-12-04T08:50:09Z</time>
      </trkpt>
      <trkpt lat="48.95735" lon="2.12691">
        <ele>14.53</ele>
        <time>2024-12-04T08:50:11Z</time>
      </trkpt>
      <trkpt lat="48.95726" lon="2.12701">
        <ele>15.05</ele>
        <time>2024-12-04T08:50:16Z</time>
      </trkpt>
      <trkpt lat="48.95722" lon="2.12708">
        <ele>15.23</ele>
        <time>2024-12-04T08:50:19Z</time>
      </trkpt>
      <trkpt lat="48.95717" lon="2.12731">
        <ele>14.58</ele>
        <time>2024-12-04T08:50:31Z</time>
      </trkpt>
      <trkpt lat="48.95708" lon="2.12743">
        <ele>15.47</ele>
        <time>2024-12-04T08:50:42Z</time>
      </trkpt>
      <trkpt lat="48.95697" lon="2.12756">
        <ele>17.31</ele>
        <time>2024-12-04T08:50:55Z</time>
      </trkpt>
      <trkpt lat="48.95687" lon="2.12765">
        <ele>19.42</ele>
        <time>2024-12-04T08:51:05Z</time>
      </trkpt>
      <trkpt lat="48.95685" lon="2.12768">
        <ele>20.04</ele>
        <time>2024-12-04T08:51:07Z</time>
      </trkpt>
      <trkpt lat="48.95682" lon="2.12781">
        <ele>22.27</ele>
        <time>2024-12-04T08:51:16Z</time>
      </trkpt>
      <trkpt lat="48.95679" lon="2.12791">
        <ele>21.22</ele>
        <time>2024-12-04T08:51:22Z</time>
      </trkpt>
      <trkpt lat="48.95676" lon="2.12807">
        <ele>22.19</ele>
        <time>2024-12-04T08:51:33Z</time>
      </trkpt>
      <trkpt lat="48.95666" lon="2.12829">
        <ele>22.83</ele>
        <time>2024-12-04T08:51:47Z</time>
      </trkpt>
      <trkpt lat="48.95656" lon="2.12841">
        <ele>23.08</ele>
        <time>2024-12-04T08:52:00Z</time>
      </trkpt>
      <trkpt lat="48.95646" lon="2.12857">
        <ele>26.43</ele>
        <time>2024-12-04T08:52:11Z</time>
      </trkpt>
      <trkpt lat="48.95638" lon="2.1287">
        <ele>26.23</ele>
        <time>2024-12-04T08:52:23Z</time>
      </trkpt>
      <trkpt lat="48.9563" lon="2.12887">
        <ele>24.04</ele>
        <time>2024-12-04T08:52:35Z</time>
      </trkpt>
      <trkpt lat="48.95623" lon="2.12901">
        <ele>22.94</ele>
        <time>2024-12-04T08:52:46Z</time>
      </trkpt>
      <trkpt lat="48.95617" lon="2.12912">
        <ele>24.13</ele>
        <time>2024-12-04T08:52:58Z</time>
      </trkpt>
      <trkpt lat="48.95608" lon="2.12925">
        <ele>23.81</ele>
        <time>2024-12-04T08:53:11Z</time>
      </trkpt>
      <trkpt lat="48.95594" lon="2.12943">
        <ele>23.42</ele>
        <time>2024-12-04T08:53:23Z</time>
      </trkpt>
      <trkpt lat="48.95582" lon="2.12963">
        <ele>21.86</ele>
        <time>2024-12-04T08:53:35Z</time>
      </trkpt>
      <trkpt lat="48.95572" lon="2.12979">
        <ele>22.88</ele>
        <time>2024-12-04T08:53:48Z</time>
      </trkpt>
      <trkpt lat="48.95563" lon="2.13001">
        <ele>22.76</ele>
        <time>2024-12-04T08:54:01Z</time>
      </trkpt>
      <trkpt lat="48.95557" lon="2.13025">
        <ele>22.79</ele>
        <time>2024-12-04T08:54:12Z</time>
      </trkpt>
      <trkpt lat="48.95548" lon="2.1304">
        <ele>23.21</ele>
        <time>2024-12-04T08:54:23Z</time>
      </trkpt>
      <trkpt lat="48.95537" lon="2.1306">
        <ele>23.73</ele>
        <time>2024-12-04T08:54:34Z</time>
      </trkpt>
      <trkpt lat="48.95534" lon="2.13066">
        <ele>23.48</ele>
        <time>2024-12-04T08:54:37Z</time>
      </trkpt>
      <trkpt lat="48.95526" lon="2.13083">
        <ele>22.96</ele>
        <time>2024-12-04T08:54:45Z</time>
      </trkpt>
      <trkpt lat="48.95517" lon="2.13099">
        <ele>23.13</ele>
        <time>2024-12-04T08:54:55Z</time>
      </trkpt>
      <trkpt lat="48.95505" lon="2.13112">
        <ele>24.67</ele>
        <time>2024-12-04T08:55:06Z</time>
      </trkpt>
      <trkpt lat="48.95493" lon="2.13128">
        <ele>22.88</ele>
        <time>2024-12-04T08:55:19Z</time>
      </trkpt>
      <trkpt lat="48.95483" lon="2.1315">
        <ele>22.87</ele>
        <time>2024-12-04T08:55:31Z</time>
      </trkpt>
      <trkpt lat="48.95478" lon="2.13158">
        <ele>22.21</ele>
        <time>2024-12-04T08:55:38Z</time>
      </trkpt>
      <trkpt lat="48.95468" lon="2.13169">
        <ele>22.46</ele>
        <time>2024-12-04T08:55:47Z</time>
      </trkpt>
      <trkpt lat="48.95461" lon="2.13175">
        <ele>22.71</ele>
        <time>2024-12-04T08:55:53Z</time>
      </trkpt>
      <trkpt lat="48.95451" lon="2.13181">
        <ele>21.82</ele>
        <time>2024-12-04T08:56:00Z</time>
      </trkpt>
      <trkpt lat="48.95445" lon="2.13181">
        <ele>22.17</ele>
        <time>2024-12-04T08:56:03Z</time>
      </trkpt>
      <trkpt lat="48.95439" lon="2.13181">
        <ele>21.88</ele>
        <time>2024-12-04T08:56:06Z</time>
      </trkpt>
      <trkpt lat="48.95437" lon="2.13181">
        <ele>22.01</ele>
        <time>2024-12-04T08:56:07Z</time>
      </trkpt>
      <trkpt lat="48.95435" lon="2.1318">
        <ele>21.92</ele>
        <time>2024-12-04T08:56:08Z</time>
      </trkpt>
      <trkpt lat="48.95434" lon="2.13179">
        <ele>21.87</ele>
        <time>2024-12-04T08:56:09Z</time>
      </trkpt>
      <trkpt lat="48.95433" lon="2.13178">
        <ele>21.8</ele>
        <time>2024-12-04T08:56:10Z</time>
      </trkpt>
      <trkpt lat="48.95431" lon="2.13176">
        <ele>21.61</ele>
        <time>2024-12-04T08:56:11Z</time>
      </trkpt>
      <trkpt lat="48.9543" lon="2.13175">
        <ele>22.19</ele>
        <time>2024-12-04T08:56:12Z</time>
      </trkpt>
      <trkpt lat="48.95428" lon="2.13174">
        <ele>21.95</ele>
        <time>2024-12-04T08:56:13Z</time>
      </trkpt>
      <trkpt lat="48.95427" lon="2.13173">
        <ele>21.94</ele>
        <time>2024-12-04T08:56:14Z</time>
      </trkpt>
      <trkpt lat="48.95426" lon="2.13173">
        <ele>21.52</ele>
        <time>2024-12-04T08:56:15Z</time>
      </trkpt>
      <trkpt lat="48.95424" lon="2.13172">
        <ele>21.28</ele>
        <time>2024-12-04T08:56:16Z</time>
      </trkpt>
      <trkpt lat="48.95423" lon="2.13171">
        <ele>21.35</ele>
        <time>2024-12-04T08:56:17Z</time>
      </trkpt>
      <trkpt lat="48.95422" lon="2.1317">
        <ele>21.28</ele>
        <time>2024-12-04T08:56:18Z</time>
      </trkpt>
      <trkpt lat="48.95419" lon="2.13168">
        <ele>22.04</ele>
        <time>2024-12-04T08:56:21Z</time>
      </trkpt>
      <trkpt lat="48.95418" lon="2.13167">
        <ele>22.15</ele>
        <time>2024-12-04T08:56:22Z</time>
      </trkpt>
      <trkpt lat="48.95416" lon="2.13166">
        <ele>21.55</ele>
        <time>2024-12-04T08:56:23Z</time>
      </trkpt>
      <trkpt lat="48.95415" lon="2.13165">
        <ele>22.04</ele>
        <time>2024-12-04T08:56:24Z</time>
      </trkpt>
      <trkpt lat="48.95414" lon="2.13163">
        <ele>21.99</ele>
        <time>2024-12-04T08:56:26Z</time>
      </trkpt>
      <trkpt lat="48.95408" lon="2.13159">
        <ele>21.59</ele>
        <time>2024-12-04T08:56:30Z</time>
      </trkpt>
      <trkpt lat="48.95406" lon="2.13158">
        <ele>21.46</ele>
        <time>2024-12-04T08:56:31Z</time>
      </trkpt>
      <trkpt lat="48.95405" lon="2.13157">
        <ele>21.5</ele>
        <time>2024-12-04T08:56:32Z</time>
      </trkpt>
      <trkpt lat="48.95404" lon="2.13156">
        <ele>21.22</ele>
        <time>2024-12-04T08:56:33Z</time>
      </trkpt>
      <trkpt lat="48.95402" lon="2.13155">
        <ele>21.31</ele>
        <time>2024-12-04T08:56:34Z</time>
      </trkpt>
      <trkpt lat="48.95401" lon="2.13154">
        <ele>21.22</ele>
        <time>2024-12-04T08:56:35Z</time>
      </trkpt>
      <trkpt lat="48.95399" lon="2.13153">
        <ele>21.01</ele>
        <time>2024-12-04T08:56:36Z</time>
      </trkpt>
      <trkpt lat="48.95399" lon="2.13152">
        <ele>21.33</ele>
        <time>2024-12-04T08:56:37Z</time>
      </trkpt>
      <trkpt lat="48.95398" lon="2.13151">
        <ele>21.66</ele>
        <time>2024-12-04T08:56:38Z</time>
      </trkpt>
      <trkpt lat="48.95396" lon="2.1315">
        <ele>20.99</ele>
        <time>2024-12-04T08:56:39Z</time>
      </trkpt>
      <trkpt lat="48.95391" lon="2.13146">
        <ele>21.1</ele>
        <time>2024-12-04T08:56:44Z</time>
      </trkpt>
      <trkpt lat="48.9539" lon="2.13145">
        <ele>21.19</ele>
        <time>2024-12-04T08:56:45Z</time>
      </trkpt>
      <trkpt lat="48.95389" lon="2.13144">
        <ele>21.26</ele>
        <time>2024-12-04T08:56:46Z</time>
      </trkpt>
      <trkpt lat="48.95382" lon="2.13137">
        <ele>20.04</ele>
        <time>2024-12-04T08:56:54Z</time>
      </trkpt>
      <trkpt lat="48.95379" lon="2.13133">
        <ele>21.01</ele>
        <time>2024-12-04T08:56:57Z</time>
      </trkpt>
      <trkpt lat="48.95374" lon="2.13129">
        <ele>20.58</ele>
        <time>2024-12-04T08:57:02Z</time>
      </trkpt>
      <trkpt lat="48.95373" lon="2.13127">
        <ele>20.32</ele>
        <time>2024-12-04T08:57:03Z</time>
      </trkpt>
      <trkpt lat="48.95371" lon="2.13126">
        <ele>19.89</ele>
        <time>2024-12-04T08:57:04Z</time>
      </trkpt>
      <trkpt lat="48.95366" lon="2.13122">
        <ele>20.81</ele>
        <time>2024-12-04T08:57:07Z</time>
      </trkpt>
      <trkpt lat="48.95363" lon="2.1312">
        <ele>19.73</ele>
        <time>2024-12-04T08:57:10Z</time>
      </trkpt>
      <trkpt lat="48.95362" lon="2.13118">
        <ele>20.14</ele>
        <time>2024-12-04T08:57:11Z</time>
      </trkpt>
      <trkpt lat="48.9536" lon="2.13117">
        <ele>19.75</ele>
        <time>2024-12-04T08:57:12Z</time>
      </trkpt>
      <trkpt lat="48.95346" lon="2.13111">
        <ele>19.72</ele>
        <time>2024-12-04T08:57:22Z</time>
      </trkpt>
      <trkpt lat="48.95333" lon="2.13104">
        <ele>19.39</ele>
        <time>2024-12-04T08:57:34Z</time>
      </trkpt>
      <trkpt lat="48.9532" lon="2.13092">
        <ele>19.31</ele>
        <time>2024-12-04T08:57:47Z</time>
      </trkpt>
      <trkpt lat="48.95307" lon="2.13077">
        <ele>19.55</ele>
        <time>2024-12-04T08:57:58Z</time>
      </trkpt>
      <trkpt lat="48.95305" lon="2.13076">
        <ele>19.51</ele>
        <time>2024-12-04T08:57:59Z</time>
      </trkpt>
      <trkpt lat="48.95302" lon="2.13073">
        <ele>19.11</ele>
        <time>2024-12-04T08:58:02Z</time>
      </trkpt>
      <trkpt lat="48.95301" lon="2.13072">
        <ele>19.11</ele>
        <time>2024-12-04T08:58:03Z</time>
      </trkpt>
      <trkpt lat="48.95294" lon="2.13066">
        <ele>19.42</ele>
        <time>2024-12-04T08:58:08Z</time>
      </trkpt>
      <trkpt lat="48.95291" lon="2.13064">
        <ele>18.76</ele>
        <time>2024-12-04T08:58:10Z</time>
      </trkpt>
      <trkpt lat="48.95289" lon="2.13063">
        <ele>18.87</ele>
        <time>2024-12-04T08:58:11Z</time>
      </trkpt>
      <trkpt lat="48.9528" lon="2.13058">
        <ele>18.61</ele>
        <time>2024-12-04T08:58:21Z</time>
      </trkpt>
      <trkpt lat="48.95267" lon="2.13046">
        <ele>18.95</ele>
        <time>2024-12-04T08:58:31Z</time>
      </trkpt>
      <trkpt lat="48.95257" lon="2.13037">
        <ele>18.94</ele>
        <time>2024-12-04T08:58:37Z</time>
      </trkpt>
      <trkpt lat="48.95256" lon="2.13036">
        <ele>18.83</ele>
        <time>2024-12-04T08:58:38Z</time>
      </trkpt>
      <trkpt lat="48.95254" lon="2.13035">
        <ele>19.07</ele>
        <time>2024-12-04T08:58:39Z</time>
      </trkpt>
      <trkpt lat="48.95254" lon="2.13035">
        <ele>18.82</ele>
        <time>2024-12-04T08:58:40Z</time>
      </trkpt>
      <trkpt lat="48.95253" lon="2.13033">
        <ele>19.01</ele>
        <time>2024-12-04T08:58:41Z</time>
      </trkpt>
      <trkpt lat="48.95251" lon="2.13032">
        <ele>19.11</ele>
        <time>2024-12-04T08:58:42Z</time>
      </trkpt>
      <trkpt lat="48.9525" lon="2.13031">
        <ele>18.72</ele>
        <time>2024-12-04T08:58:43Z</time>
      </trkpt>
      <trkpt lat="48.95249" lon="2.13031">
        <ele>19</ele>
        <time>2024-12-04T08:58:44Z</time>
      </trkpt>
      <trkpt lat="48.95248" lon="2.13031">
        <ele>18.89</ele>
        <time>2024-12-04T08:58:45Z</time>
      </trkpt>
      <trkpt lat="48.95246" lon="2.13031">
        <ele>18.73</ele>
        <time>2024-12-04T08:58:46Z</time>
      </trkpt>
      <trkpt lat="48.95244" lon="2.1303">
        <ele>19.04</ele>
        <time>2024-12-04T08:58:47Z</time>
      </trkpt>
      <trkpt lat="48.95243" lon="2.13029">
        <ele>18.99</ele>
        <time>2024-12-04T08:58:48Z</time>
      </trkpt>
      <trkpt lat="48.95241" lon="2.13028">
        <ele>18.83</ele>
        <time>2024-12-04T08:58:49Z</time>
      </trkpt>
      <trkpt lat="48.9524" lon="2.13027">
        <ele>19.3</ele>
        <time>2024-12-04T08:58:50Z</time>
      </trkpt>
      <trkpt lat="48.95239" lon="2.13026">
        <ele>19.06</ele>
        <time>2024-12-04T08:58:51Z</time>
      </trkpt>
      <trkpt lat="48.95238" lon="2.13026">
        <ele>18.48</ele>
        <time>2024-12-04T08:58:52Z</time>
      </trkpt>
      <trkpt lat="48.95231" lon="2.13019">
        <ele>18.97</ele>
        <time>2024-12-04T08:58:59Z</time>
      </trkpt>
      <trkpt lat="48.95218" lon="2.13007">
        <ele>18.4</ele>
        <time>2024-12-04T08:59:09Z</time>
      </trkpt>
      <trkpt lat="48.95206" lon="2.12995">
        <ele>18.87</ele>
        <time>2024-12-04T08:59:19Z</time>
      </trkpt>
      <trkpt lat="48.95205" lon="2.12993">
        <ele>18.75</ele>
        <time>2024-12-04T08:59:20Z</time>
      </trkpt>
      <trkpt lat="48.95202" lon="2.12988">
        <ele>19.31</ele>
        <time>2024-12-04T08:59:23Z</time>
      </trkpt>
      <trkpt lat="48.952" lon="2.12987">
        <ele>19.22</ele>
        <time>2024-12-04T08:59:24Z</time>
      </trkpt>
      <trkpt lat="48.95199" lon="2.12987">
        <ele>19.08</ele>
        <time>2024-12-04T08:59:25Z</time>
      </trkpt>
      <trkpt lat="48.95197" lon="2.12985">
        <ele>18.95</ele>
        <time>2024-12-04T08:59:27Z</time>
      </trkpt>
      <trkpt lat="48.95195" lon="2.12983">
        <ele>18.69</ele>
        <time>2024-12-04T08:59:28Z</time>
      </trkpt>
      <trkpt lat="48.95194" lon="2.12982">
        <ele>18.85</ele>
        <time>2024-12-04T08:59:29Z</time>
      </trkpt>
      <trkpt lat="48.95192" lon="2.1298">
        <ele>18.7</ele>
        <time>2024-12-04T08:59:30Z</time>
      </trkpt>
      <trkpt lat="48.95191" lon="2.12979">
        <ele>18.62</ele>
        <time>2024-12-04T08:59:31Z</time>
      </trkpt>
      <trkpt lat="48.9519" lon="2.12977">
        <ele>18.92</ele>
        <time>2024-12-04T08:59:32Z</time>
      </trkpt>
      <trkpt lat="48.95186" lon="2.12975">
        <ele>18.63</ele>
        <time>2024-12-04T08:59:34Z</time>
      </trkpt>
      <trkpt lat="48.95185" lon="2.12975">
        <ele>18.51</ele>
        <time>2024-12-04T08:59:35Z</time>
      </trkpt>
      <trkpt lat="48.95183" lon="2.12974">
        <ele>18.66</ele>
        <time>2024-12-04T08:59:36Z</time>
      </trkpt>
      <trkpt lat="48.95181" lon="2.12972">
        <ele>18.56</ele>
        <time>2024-12-04T08:59:37Z</time>
      </trkpt>
      <trkpt lat="48.9518" lon="2.12971">
        <ele>18.91</ele>
        <time>2024-12-04T08:59:38Z</time>
      </trkpt>
      <trkpt lat="48.95178" lon="2.12971">
        <ele>18.67</ele>
        <time>2024-12-04T08:59:39Z</time>
      </trkpt>
      <trkpt lat="48.95177" lon="2.1297">
        <ele>19.2</ele>
        <time>2024-12-04T08:59:40Z</time>
      </trkpt>
      <trkpt lat="48.95176" lon="2.12969">
        <ele>19.26</ele>
        <time>2024-12-04T08:59:41Z</time>
      </trkpt>
      <trkpt lat="48.95174" lon="2.12969">
        <ele>19.12</ele>
        <time>2024-12-04T08:59:42Z</time>
      </trkpt>
      <trkpt lat="48.95172" lon="2.12969">
        <ele>19.21</ele>
        <time>2024-12-04T08:59:43Z</time>
      </trkpt>
      <trkpt lat="48.95171" lon="2.12968">
        <ele>18.77</ele>
        <time>2024-12-04T08:59:44Z</time>
      </trkpt>
      <trkpt lat="48.95169" lon="2.12968">
        <ele>18.81</ele>
        <time>2024-12-04T08:59:45Z</time>
      </trkpt>
      <trkpt lat="48.95167" lon="2.12967">
        <ele>19.21</ele>
        <time>2024-12-04T08:59:46Z</time>
      </trkpt>
      <trkpt lat="48.95163" lon="2.12967">
        <ele>19.05</ele>
        <time>2024-12-04T08:59:49Z</time>
      </trkpt>
      <trkpt lat="48.95161" lon="2.12966">
        <ele>18.75</ele>
        <time>2024-12-04T08:59:50Z</time>
      </trkpt>
      <trkpt lat="48.95159" lon="2.12964">
        <ele>18.98</ele>
        <time>2024-12-04T08:59:51Z</time>
      </trkpt>
      <trkpt lat="48.95146" lon="2.1295">
        <ele>18.94</ele>
        <time>2024-12-04T09:00:02Z</time>
      </trkpt>
      <trkpt lat="48.95144" lon="2.12948">
        <ele>18.96</ele>
        <time>2024-12-04T09:00:04Z</time>
      </trkpt>
      <trkpt lat="48.95129" lon="2.12936">
        <ele>19.26</ele>
        <time>2024-12-04T09:00:16Z</time>
      </trkpt>
      <trkpt lat="48.9511" lon="2.12921">
        <ele>19.67</ele>
        <time>2024-12-04T09:00:30Z</time>
      </trkpt>
      <trkpt lat="48.95099" lon="2.1291">
        <ele>19.95</ele>
        <time>2024-12-04T09:00:40Z</time>
      </trkpt>
      <trkpt lat="48.95099" lon="2.129">
        <ele>19.56</ele>
        <time>2024-12-04T09:00:59Z</time>
      </trkpt>
      <trkpt lat="48.95097" lon="2.12901">
        <ele>19.18</ele>
        <time>2024-12-04T09:01:19Z</time>
      </trkpt>
      <trkpt lat="48.95099" lon="2.129">
        <ele>20.23</ele>
        <time>2024-12-04T09:01:39Z</time>
      </trkpt>
      <trkpt lat="48.95097" lon="2.12903">
        <ele>20.01</ele>
        <time>2024-12-04T09:02:01Z</time>
      </trkpt>
      <trkpt lat="48.95099" lon="2.12904">
        <ele>20.02</ele>
        <time>2024-12-04T09:02:23Z</time>
      </trkpt>
      <trkpt lat="48.95099" lon="2.12905">
        <ele>19.96</ele>
        <time>2024-12-04T09:02:46Z</time>
      </trkpt>
      <trkpt lat="48.95096" lon="2.12907">
        <ele>20.84</ele>
        <time>2024-12-04T09:03:07Z</time>
      </trkpt>
      <trkpt lat="48.95095" lon="2.12903">
        <ele>20.81</ele>
        <time>2024-12-04T09:03:27Z</time>
      </trkpt>
      <trkpt lat="48.95099" lon="2.129">
        <ele>20.36</ele>
        <time>2024-12-04T09:03:44Z</time>
      </trkpt>
      <trkpt lat="48.95099" lon="2.12883">
        <ele>21.17</ele>
        <time>2024-12-04T09:03:58Z</time>
      </trkpt>
      <trkpt lat="48.95099" lon="2.12863">
        <ele>21.22</ele>
        <time>2024-12-04T09:04:12Z</time>
      </trkpt>
      <trkpt lat="48.95099" lon="2.12843">
        <ele>21.18</ele>
        <time>2024-12-04T09:04:23Z</time>
      </trkpt>
      <trkpt lat="48.95102" lon="2.12812">
        <ele>20.93</ele>
        <time>2024-12-04T09:04:37Z</time>
      </trkpt>
      <trkpt lat="48.95102" lon="2.12798">
        <ele>21.7</ele>
        <time>2024-12-04T09:04:46Z</time>
      </trkpt>
      <trkpt lat="48.95103" lon="2.12794">
        <ele>21.99</ele>
        <time>2024-12-04T09:04:48Z</time>
      </trkpt>
      <trkpt lat="48.95103" lon="2.12792">
        <ele>22.12</ele>
        <time>2024-12-04T09:04:49Z</time>
      </trkpt>
      <trkpt lat="48.95103" lon="2.12789">
        <ele>21.98</ele>
        <time>2024-12-04T09:04:50Z</time>
      </trkpt>
      <trkpt lat="48.95103" lon="2.12786">
        <ele>22.27</ele>
        <time>2024-12-04T09:04:51Z</time>
      </trkpt>
      <trkpt lat="48.95103" lon="2.12784">
        <ele>21.66</ele>
        <time>2024-12-04T09:04:52Z</time>
      </trkpt>
      <trkpt lat="48.95104" lon="2.12775">
        <ele>21.48</ele>
        <time>2024-12-04T09:04:56Z</time>
      </trkpt>
      <trkpt lat="48.95109" lon="2.12756">
        <ele>21.96</ele>
        <time>2024-12-04T09:05:07Z</time>
      </trkpt>
      <trkpt lat="48.95109" lon="2.12754">
        <ele>21.89</ele>
        <time>2024-12-04T09:05:08Z</time>
      </trkpt>
      <trkpt lat="48.9511" lon="2.12747">
        <ele>21.96</ele>
        <time>2024-12-04T09:05:12Z</time>
      </trkpt>
      <trkpt lat="48.95112" lon="2.12731">
        <ele>21.69</ele>
        <time>2024-12-04T09:05:21Z</time>
      </trkpt>
      <trkpt lat="48.95112" lon="2.1272">
        <ele>22.49</ele>
        <time>2024-12-04T09:05:27Z</time>
      </trkpt>
      <trkpt lat="48.95113" lon="2.12706">
        <ele>22.7</ele>
        <time>2024-12-04T09:05:34Z</time>
      </trkpt>
      <trkpt lat="48.95113" lon="2.12704">
        <ele>23.06</ele>
        <time>2024-12-04T09:05:35Z</time>
      </trkpt>
      <trkpt lat="48.95115" lon="2.12693">
        <ele>22.91</ele>
        <time>2024-12-04T09:05:40Z</time>
      </trkpt>
      <trkpt lat="48.95115" lon="2.12691">
        <ele>22.5</ele>
        <time>2024-12-04T09:05:41Z</time>
      </trkpt>
      <trkpt lat="48.95116" lon="2.12689">
        <ele>22.41</ele>
        <time>2024-12-04T09:05:42Z</time>
      </trkpt>
      <trkpt lat="48.95116" lon="2.12687">
        <ele>22.44</ele>
        <time>2024-12-04T09:05:43Z</time>
      </trkpt>
      <trkpt lat="48.95119" lon="2.12677">
        <ele>23.42</ele>
        <time>2024-12-04T09:05:49Z</time>
      </trkpt>
      <trkpt lat="48.9512" lon="2.12675">
        <ele>22.95</ele>
        <time>2024-12-04T09:05:50Z</time>
      </trkpt>
      <trkpt lat="48.95123" lon="2.12659">
        <ele>22.78</ele>
        <time>2024-12-04T09:05:58Z</time>
      </trkpt>
      <trkpt lat="48.95123" lon="2.1264">
        <ele>23.29</ele>
        <time>2024-12-04T09:06:08Z</time>
      </trkpt>
      <trkpt lat="48.95124" lon="2.12637">
        <ele>23.93</ele>
        <time>2024-12-04T09:06:09Z</time>
      </trkpt>
      <trkpt lat="48.95124" lon="2.12635">
        <ele>23.64</ele>
        <time>2024-12-04T09:06:10Z</time>
      </trkpt>
      <trkpt lat="48.95125" lon="2.1263">
        <ele>23.44</ele>
        <time>2024-12-04T09:06:13Z</time>
      </trkpt>
      <trkpt lat="48.95125" lon="2.12628">
        <ele>23.76</ele>
        <time>2024-12-04T09:06:14Z</time>
      </trkpt>
      <trkpt lat="48.95124" lon="2.12609">
        <ele>23.19</ele>
        <time>2024-12-04T09:06:24Z</time>
      </trkpt>
      <trkpt lat="48.95127" lon="2.12583">
        <ele>24.03</ele>
        <time>2024-12-04T09:06:38Z</time>
      </trkpt>
      <trkpt lat="48.95129" lon="2.12557">
        <ele>23.74</ele>
        <time>2024-12-04T09:06:51Z</time>
      </trkpt>
      <trkpt lat="48.95129" lon="2.12551">
        <ele>24.36</ele>
        <time>2024-12-04T09:06:53Z</time>
      </trkpt>
      <trkpt lat="48.95128" lon="2.12547">
        <ele>23.48</ele>
        <time>2024-12-04T09:06:55Z</time>
      </trkpt>
      <trkpt lat="48.95129" lon="2.12545">
        <ele>23.11</ele>
        <time>2024-12-04T09:06:56Z</time>
      </trkpt>
      <trkpt lat="48.95131" lon="2.12531">
        <ele>23.31</ele>
        <time>2024-12-04T09:07:04Z</time>
      </trkpt>
      <trkpt lat="48.95136" lon="2.12499">
        <ele>22.29</ele>
        <time>2024-12-04T09:07:18Z</time>
      </trkpt>
      <trkpt lat="48.95142" lon="2.12471">
        <ele>22.06</ele>
        <time>2024-12-04T09:07:31Z</time>
      </trkpt>
      <trkpt lat="48.95145" lon="2.12449">
        <ele>21.01</ele>
        <time>2024-12-04T09:07:41Z</time>
      </trkpt>
      <trkpt lat="48.95145" lon="2.12447">
        <ele>20.48</ele>
        <time>2024-12-04T09:07:42Z</time>
      </trkpt>
      <trkpt lat="48.95145" lon="2.12445">
        <ele>21.08</ele>
        <time>2024-12-04T09:07:43Z</time>
      </trkpt>
      <trkpt lat="48.95145" lon="2.12438">
        <ele>20.36</ele>
        <time>2024-12-04T09:07:46Z</time>
      </trkpt>
      <trkpt lat="48.95146" lon="2.12428">
        <ele>20.59</ele>
        <time>2024-12-04T09:07:50Z</time>
      </trkpt>
      <trkpt lat="48.95147" lon="2.1241">
        <ele>20.18</ele>
        <time>2024-12-04T09:07:58Z</time>
      </trkpt>
      <trkpt lat="48.95151" lon="2.12395">
        <ele>20.37</ele>
        <time>2024-12-04T09:08:06Z</time>
      </trkpt>
      <trkpt lat="48.95151" lon="2.12393">
        <ele>20.32</ele>
        <time>2024-12-04T09:08:07Z</time>
      </trkpt>
      <trkpt lat="48.95153" lon="2.12385">
        <ele>20.27</ele>
        <time>2024-12-04T09:08:11Z</time>
      </trkpt>
      <trkpt lat="48.95154" lon="2.12381">
        <ele>20.54</ele>
        <time>2024-12-04T09:08:13Z</time>
      </trkpt>
      <trkpt lat="48.95155" lon="2.12379">
        <ele>20.39</ele>
        <time>2024-12-04T09:08:14Z</time>
      </trkpt>
      <trkpt lat="48.95156" lon="2.12377">
        <ele>21.07</ele>
        <time>2024-12-04T09:08:15Z</time>
      </trkpt>
      <trkpt lat="48.95156" lon="2.12375">
        <ele>20.26</ele>
        <time>2024-12-04T09:08:16Z</time>
      </trkpt>
      <trkpt lat="48.95157" lon="2.12373">
        <ele>20.6</ele>
        <time>2024-12-04T09:08:17Z</time>
      </trkpt>
      <trkpt lat="48.95158" lon="2.12371">
        <ele>20.04</ele>
        <time>2024-12-04T09:08:18Z</time>
      </trkpt>
      <trkpt lat="48.95159" lon="2.1237">
        <ele>20.44</ele>
        <time>2024-12-04T09:08:19Z</time>
      </trkpt>
      <trkpt lat="48.9516" lon="2.12368">
        <ele>20.45</ele>
        <time>2024-12-04T09:08:20Z</time>
      </trkpt>
      <trkpt lat="48.95161" lon="2.12362">
        <ele>20.39</ele>
        <time>2024-12-04T09:08:24Z</time>
      </trkpt>
      <trkpt lat="48.95162" lon="2.12359">
        <ele>20.97</ele>
        <time>2024-12-04T09:08:25Z</time>
      </trkpt>
      <trkpt lat="48.95162" lon="2.12356">
        <ele>20.99</ele>
        <time>2024-12-04T09:08:26Z</time>
      </trkpt>
      <trkpt lat="48.95163" lon="2.12354">
        <ele>21.02</ele>
        <time>2024-12-04T09:08:27Z</time>
      </trkpt>
      <trkpt lat="48.95162" lon="2.12338">
        <ele>20.95</ele>
        <time>2024-12-04T09:08:35Z</time>
      </trkpt>
      <trkpt lat="48.95164" lon="2.12324">
        <ele>21.43</ele>
        <time>2024-12-04T09:08:43Z</time>
      </trkpt>
      <trkpt lat="48.95167" lon="2.12299">
        <ele>21.48</ele>
        <time>2024-12-04T09:08:56Z</time>
      </trkpt>
      <trkpt lat="48.95167" lon="2.12271">
        <ele>21.57</ele>
        <time>2024-12-04T09:09:09Z</time>
      </trkpt>
      <trkpt lat="48.9517" lon="2.12249">
        <ele>22.35</ele>
        <time>2024-12-04T09:09:19Z</time>
      </trkpt>
      <trkpt lat="48.9517" lon="2.12246">
        <ele>22.38</ele>
        <time>2024-12-04T09:09:20Z</time>
      </trkpt>
      <trkpt lat="48.9517" lon="2.12245">
        <ele>22.36</ele>
        <time>2024-12-04T09:09:21Z</time>
      </trkpt>
      <trkpt lat="48.95172" lon="2.12239">
        <ele>22.57</ele>
        <time>2024-12-04T09:09:24Z</time>
      </trkpt>
      <trkpt lat="48.95172" lon="2.12233">
        <ele>22.79</ele>
        <time>2024-12-04T09:09:27Z</time>
      </trkpt>
      <trkpt lat="48.95175" lon="2.12216">
        <ele>22.59</ele>
        <time>2024-12-04T09:09:37Z</time>
      </trkpt>
      <trkpt lat="48.95175" lon="2.12211">
        <ele>22.44</ele>
        <time>2024-12-04T09:09:39Z</time>
      </trkpt>
      <trkpt lat="48.95176" lon="2.12204">
        <ele>23.22</ele>
        <time>2024-12-04T09:09:43Z</time>
      </trkpt>
      <trkpt lat="48.95176" lon="2.12199">
        <ele>23.3</ele>
        <time>2024-12-04T09:09:45Z</time>
      </trkpt>
      <trkpt lat="48.95177" lon="2.12179">
        <ele>23.19</ele>
        <time>2024-12-04T09:09:55Z</time>
      </trkpt>
      <trkpt lat="48.95181" lon="2.12155">
        <ele>23.78</ele>
        <time>2024-12-04T09:10:08Z</time>
      </trkpt>
      <trkpt lat="48.95182" lon="2.12153">
        <ele>23.81</ele>
        <time>2024-12-04T09:10:09Z</time>
      </trkpt>
      <trkpt lat="48.95182" lon="2.1215">
        <ele>23.89</ele>
        <time>2024-12-04T09:10:10Z</time>
      </trkpt>
      <trkpt lat="48.95183" lon="2.12138">
        <ele>24.17</ele>
        <time>2024-12-04T09:10:15Z</time>
      </trkpt>
      <trkpt lat="48.95183" lon="2.12135">
        <ele>24.31</ele>
        <time>2024-12-04T09:10:16Z</time>
      </trkpt>
      <trkpt lat="48.95183" lon="2.1213">
        <ele>24.36</ele>
        <time>2024-12-04T09:10:18Z</time>
      </trkpt>
      <trkpt lat="48.95183" lon="2.12128">
        <ele>24.07</ele>
        <time>2024-12-04T09:10:19Z</time>
      </trkpt>
      <trkpt lat="48.95183" lon="2.12126">
        <ele>24.12</ele>
        <time>2024-12-04T09:10:20Z</time>
      </trkpt>
      <trkpt lat="48.95183" lon="2.12121">
        <ele>24.77</ele>
        <time>2024-12-04T09:10:22Z</time>
      </trkpt>
      <trkpt lat="48.95182" lon="2.12116">
        <ele>24.79</ele>
        <time>2024-12-04T09:10:24Z</time>
      </trkpt>
      <trkpt lat="48.95183" lon="2.12106">
        <ele>24.73</ele>
        <time>2024-12-04T09:10:28Z</time>
      </trkpt>
      <trkpt lat="48.95183" lon="2.12104">
        <ele>24.71</ele>
        <time>2024-12-04T09:10:29Z</time>
      </trkpt>
      <trkpt lat="48.95184" lon="2.121">
        <ele>24.85</ele>
        <time>2024-12-04T09:10:31Z</time>
      </trkpt>
      <trkpt lat="48.95186" lon="2.12092">
        <ele>25.94</ele>
        <time>2024-12-04T09:10:36Z</time>
      </trkpt>
      <trkpt lat="48.95187" lon="2.1209">
        <ele>25.5</ele>
        <time>2024-12-04T09:10:37Z</time>
      </trkpt>
      <trkpt lat="48.95192" lon="2.12075">
        <ele>25.38</ele>
        <time>2024-12-04T09:10:47Z</time>
      </trkpt>
      <trkpt lat="48.95193" lon="2.12071">
        <ele>25.58</ele>
        <time>2024-12-04T09:10:49Z</time>
      </trkpt>
      <trkpt lat="48.95196" lon="2.12052">
        <ele>26.11</ele>
        <time>2024-12-04T09:10:58Z</time>
      </trkpt>
      <trkpt lat="48.95196" lon="2.12047">
        <ele>25.9</ele>
        <time>2024-12-04T09:11:01Z</time>
      </trkpt>
      <trkpt lat="48.95197" lon="2.1204">
        <ele>26.7</ele>
        <time>2024-12-04T09:11:04Z</time>
      </trkpt>
      <trkpt lat="48.95197" lon="2.12034">
        <ele>26.4</ele>
        <time>2024-12-04T09:11:07Z</time>
      </trkpt>
      <trkpt lat="48.95199" lon="2.12008">
        <ele>26.93</ele>
        <time>2024-12-04T09:11:18Z</time>
      </trkpt>
      <trkpt lat="48.95199" lon="2.12003">
        <ele>27.23</ele>
        <time>2024-12-04T09:11:20Z</time>
      </trkpt>
      <trkpt lat="48.95199" lon="2.12">
        <ele>27.24</ele>
        <time>2024-12-04T09:11:21Z</time>
      </trkpt>
      <trkpt lat="48.95199" lon="2.11998">
        <ele>27.2</ele>
        <time>2024-12-04T09:11:22Z</time>
      </trkpt>
      <trkpt lat="48.95198" lon="2.11996">
        <ele>26.84</ele>
        <time>2024-12-04T09:11:23Z</time>
      </trkpt>
      <trkpt lat="48.95198" lon="2.11994">
        <ele>27.19</ele>
        <time>2024-12-04T09:11:24Z</time>
      </trkpt>
      <trkpt lat="48.95198" lon="2.11991">
        <ele>27.23</ele>
        <time>2024-12-04T09:11:25Z</time>
      </trkpt>
      <trkpt lat="48.95198" lon="2.11989">
        <ele>26.87</ele>
        <time>2024-12-04T09:11:26Z</time>
      </trkpt>
      <trkpt lat="48.95198" lon="2.11985">
        <ele>27.05</ele>
        <time>2024-12-04T09:11:27Z</time>
      </trkpt>
      <trkpt lat="48.95198" lon="2.11982">
        <ele>27.39</ele>
        <time>2024-12-04T09:11:28Z</time>
      </trkpt>
      <trkpt lat="48.95197" lon="2.11978">
        <ele>27.1</ele>
        <time>2024-12-04T09:11:29Z</time>
      </trkpt>
      <trkpt lat="48.95197" lon="2.11975">
        <ele>26.85</ele>
        <time>2024-12-04T09:11:30Z</time>
      </trkpt>
      <trkpt lat="48.95197" lon="2.11972">
        <ele>27.17</ele>
        <time>2024-12-04T09:11:31Z</time>
      </trkpt>
      <trkpt lat="48.95197" lon="2.11969">
        <ele>26.98</ele>
        <time>2024-12-04T09:11:32Z</time>
      </trkpt>
      <trkpt lat="48.95198" lon="2.11956">
        <ele>28.07</ele>
        <time>2024-12-04T09:11:41Z</time>
      </trkpt>
      <trkpt lat="48.95202" lon="2.11939">
        <ele>28.16</ele>
        <time>2024-12-04T09:11:49Z</time>
      </trkpt>
      <trkpt lat="48.95204" lon="2.11927">
        <ele>28.63</ele>
        <time>2024-12-04T09:11:54Z</time>
      </trkpt>
      <trkpt lat="48.95204" lon="2.11924">
        <ele>28.5</ele>
        <time>2024-12-04T09:11:55Z</time>
      </trkpt>
      <trkpt lat="48.95204" lon="2.11921">
        <ele>28.29</ele>
        <time>2024-12-04T09:11:56Z</time>
      </trkpt>
      <trkpt lat="48.95203" lon="2.11919">
        <ele>28.4</ele>
        <time>2024-12-04T09:11:57Z</time>
      </trkpt>
      <trkpt lat="48.95203" lon="2.11916">
        <ele>28.89</ele>
        <time>2024-12-04T09:11:58Z</time>
      </trkpt>
      <trkpt lat="48.95206" lon="2.11899">
        <ele>28.4</ele>
        <time>2024-12-04T09:12:09Z</time>
      </trkpt>
      <trkpt lat="48.95207" lon="2.11897">
        <ele>28.31</ele>
        <time>2024-12-04T09:12:11Z</time>
      </trkpt>
      <trkpt lat="48.95215" lon="2.1188">
        <ele>29</ele>
        <time>2024-12-04T09:12:24Z</time>
      </trkpt>
      <trkpt lat="48.95215" lon="2.11859">
        <ele>29.29</ele>
        <time>2024-12-04T09:12:37Z</time>
      </trkpt>
      <trkpt lat="48.95217" lon="2.11839">
        <ele>29.37</ele>
        <time>2024-12-04T09:12:51Z</time>
      </trkpt>
      <trkpt lat="48.9522" lon="2.11818">
        <ele>29.83</ele>
        <time>2024-12-04T09:13:05Z</time>
      </trkpt>
      <trkpt lat="48.95218" lon="2.11792">
        <ele>30.56</ele>
        <time>2024-12-04T09:13:17Z</time>
      </trkpt>
      <trkpt lat="48.95223" lon="2.11769">
        <ele>30.34</ele>
        <time>2024-12-04T09:13:32Z</time>
      </trkpt>
      <trkpt lat="48.95228" lon="2.11753">
        <ele>30.47</ele>
        <time>2024-12-04T09:13:43Z</time>
      </trkpt>
      <trkpt lat="48.9523" lon="2.11735">
        <ele>29.92</ele>
        <time>2024-12-04T09:13:52Z</time>
      </trkpt>
      <trkpt lat="48.95229" lon="2.11718">
        <ele>30.41</ele>
        <time>2024-12-04T09:14:00Z</time>
      </trkpt>
      <trkpt lat="48.95232" lon="2.11692">
        <ele>30.47</ele>
        <time>2024-12-04T09:14:14Z</time>
      </trkpt>
      <trkpt lat="48.95235" lon="2.11676">
        <ele>30.28</ele>
        <time>2024-12-04T09:14:23Z</time>
      </trkpt>
      <trkpt lat="48.95236" lon="2.11669">
        <ele>30.34</ele>
        <time>2024-12-04T09:14:27Z</time>
      </trkpt>
      <trkpt lat="48.95237" lon="2.11667">
        <ele>30.32</ele>
        <time>2024-12-04T09:14:28Z</time>
      </trkpt>
      <trkpt lat="48.95241" lon="2.1165">
        <ele>30.26</ele>
        <time>2024-12-04T09:14:37Z</time>
      </trkpt>
      <trkpt lat="48.95244" lon="2.11639">
        <ele>29.77</ele>
        <time>2024-12-04T09:14:43Z</time>
      </trkpt>
      <trkpt lat="48.95244" lon="2.11637">
        <ele>29.73</ele>
        <time>2024-12-04T09:14:44Z</time>
      </trkpt>
      <trkpt lat="48.95243" lon="2.11617">
        <ele>30.33</ele>
        <time>2024-12-04T09:14:56Z</time>
      </trkpt>
      <trkpt lat="48.95237" lon="2.11609">
        <ele>30.69</ele>
        <time>2024-12-04T09:15:02Z</time>
      </trkpt>
      <trkpt lat="48.95235" lon="2.11607">
        <ele>30.35</ele>
        <time>2024-12-04T09:15:03Z</time>
      </trkpt>
      <trkpt lat="48.95234" lon="2.11606">
        <ele>30.2</ele>
        <time>2024-12-04T09:15:04Z</time>
      </trkpt>
      <trkpt lat="48.95233" lon="2.11605">
        <ele>31.13</ele>
        <time>2024-12-04T09:15:05Z</time>
      </trkpt>
      <trkpt lat="48.95222" lon="2.11597">
        <ele>31.07</ele>
        <time>2024-12-04T09:15:14Z</time>
      </trkpt>
      <trkpt lat="48.95217" lon="2.11593">
        <ele>30.92</ele>
        <time>2024-12-04T09:15:18Z</time>
      </trkpt>
      <trkpt lat="48.95214" lon="2.1159">
        <ele>31.1</ele>
        <time>2024-12-04T09:15:20Z</time>
      </trkpt>
      <trkpt lat="48.95213" lon="2.11589">
        <ele>30.2</ele>
        <time>2024-12-04T09:15:21Z</time>
      </trkpt>
      <trkpt lat="48.95212" lon="2.11588">
        <ele>30.98</ele>
        <time>2024-12-04T09:15:22Z</time>
      </trkpt>
      <trkpt lat="48.95203" lon="2.11582">
        <ele>31.21</ele>
        <time>2024-12-04T09:15:29Z</time>
      </trkpt>
      <trkpt lat="48.95201" lon="2.11582">
        <ele>31.15</ele>
        <time>2024-12-04T09:15:30Z</time>
      </trkpt>
      <trkpt lat="48.95198" lon="2.1158">
        <ele>31.1</ele>
        <time>2024-12-04T09:15:32Z</time>
      </trkpt>
      <trkpt lat="48.95196" lon="2.11579">
        <ele>31.42</ele>
        <time>2024-12-04T09:15:33Z</time>
      </trkpt>
      <trkpt lat="48.95194" lon="2.11578">
        <ele>31.68</ele>
        <time>2024-12-04T09:15:34Z</time>
      </trkpt>
      <trkpt lat="48.95193" lon="2.11577">
        <ele>31.19</ele>
        <time>2024-12-04T09:15:35Z</time>
      </trkpt>
      <trkpt lat="48.95191" lon="2.11577">
        <ele>31.25</ele>
        <time>2024-12-04T09:15:36Z</time>
      </trkpt>
      <trkpt lat="48.9519" lon="2.11576">
        <ele>31.39</ele>
        <time>2024-12-04T09:15:37Z</time>
      </trkpt>
      <trkpt lat="48.95188" lon="2.11575">
        <ele>31.34</ele>
        <time>2024-12-04T09:15:38Z</time>
      </trkpt>
      <trkpt lat="48.95187" lon="2.11575">
        <ele>31.14</ele>
        <time>2024-12-04T09:15:39Z</time>
      </trkpt>
      <trkpt lat="48.95185" lon="2.11574">
        <ele>31.25</ele>
        <time>2024-12-04T09:15:40Z</time>
      </trkpt>
      <trkpt lat="48.95183" lon="2.11575">
        <ele>31.05</ele>
        <time>2024-12-04T09:15:42Z</time>
      </trkpt>
      <trkpt lat="48.95182" lon="2.11575">
        <ele>31.14</ele>
        <time>2024-12-04T09:15:43Z</time>
      </trkpt>
      <trkpt lat="48.9518" lon="2.11575">
        <ele>31.66</ele>
        <time>2024-12-04T09:15:44Z</time>
      </trkpt>
      <trkpt lat="48.95176" lon="2.11573">
        <ele>31.1</ele>
        <time>2024-12-04T09:15:47Z</time>
      </trkpt>
      <trkpt lat="48.95167" lon="2.11568">
        <ele>30.94</ele>
        <time>2024-12-04T09:15:55Z</time>
      </trkpt>
      <trkpt lat="48.95155" lon="2.11563">
        <ele>31.09</ele>
        <time>2024-12-04T09:16:07Z</time>
      </trkpt>
      <trkpt lat="48.95151" lon="2.11561">
        <ele>31.28</ele>
        <time>2024-12-04T09:16:09Z</time>
      </trkpt>
      <trkpt lat="48.95134" lon="2.11553">
        <ele>30.93</ele>
        <time>2024-12-04T09:16:22Z</time>
      </trkpt>
      <trkpt lat="48.95123" lon="2.11549">
        <ele>30.91</ele>
        <time>2024-12-04T09:16:31Z</time>
      </trkpt>
      <trkpt lat="48.95118" lon="2.1155">
        <ele>32.05</ele>
        <time>2024-12-04T09:16:36Z</time>
      </trkpt>
      <trkpt lat="48.95116" lon="2.1155">
        <ele>31.13</ele>
        <time>2024-12-04T09:16:37Z</time>
      </trkpt>
      <trkpt lat="48.95108" lon="2.11547">
        <ele>31.17</ele>
        <time>2024-12-04T09:16:44Z</time>
      </trkpt>
      <trkpt lat="48.95094" lon="2.11541">
        <ele>31.34</ele>
        <time>2024-12-04T09:16:56Z</time>
      </trkpt>
      <trkpt lat="48.95079" lon="2.11533">
        <ele>31.02</ele>
        <time>2024-12-04T09:17:08Z</time>
      </trkpt>
      <trkpt lat="48.95065" lon="2.11527">
        <ele>30.32</ele>
        <time>2024-12-04T09:17:20Z</time>
      </trkpt>
      <trkpt lat="48.95049" lon="2.11526">
        <ele>30.16</ele>
        <time>2024-12-04T09:17:34Z</time>
      </trkpt>
      <trkpt lat="48.95038" lon="2.11522">
        <ele>30.63</ele>
        <time>2024-12-04T09:17:43Z</time>
      </trkpt>
      <trkpt lat="48.95029" lon="2.11515">
        <ele>29.96</ele>
        <time>2024-12-04T09:17:51Z</time>
      </trkpt>
      <trkpt lat="48.95026" lon="2.11515">
        <ele>29.58</ele>
        <time>2024-12-04T09:17:54Z</time>
      </trkpt>
      <trkpt lat="48.95009" lon="2.11513">
        <ele>29.63</ele>
        <time>2024-12-04T09:18:08Z</time>
      </trkpt>
      <trkpt lat="48.94992" lon="2.11506">
        <ele>29.09</ele>
        <time>2024-12-04T09:18:23Z</time>
      </trkpt>
      <trkpt lat="48.94974" lon="2.11495">
        <ele>28.17</ele>
        <time>2024-12-04T09:18:40Z</time>
      </trkpt>
      <trkpt lat="48.94958" lon="2.11495">
        <ele>27.42</ele>
        <time>2024-12-04T09:18:55Z</time>
      </trkpt>
      <trkpt lat="48.94944" lon="2.11495">
        <ele>27.18</ele>
        <time>2024-12-04T09:19:07Z</time>
      </trkpt>
      <trkpt lat="48.94927" lon="2.11489">
        <ele>26.24</ele>
        <time>2024-12-04T09:19:21Z</time>
      </trkpt>
      <trkpt lat="48.94917" lon="2.11485">
        <ele>25.8</ele>
        <time>2024-12-04T09:19:26Z</time>
      </trkpt>
      <trkpt lat="48.94916" lon="2.11485">
        <ele>25.74</ele>
        <time>2024-12-04T09:19:27Z</time>
      </trkpt>
      <trkpt lat="48.94914" lon="2.11485">
        <ele>25.99</ele>
        <time>2024-12-04T09:19:28Z</time>
      </trkpt>
      <trkpt lat="48.94907" lon="2.11483">
        <ele>26.04</ele>
        <time>2024-12-04T09:19:33Z</time>
      </trkpt>
      <trkpt lat="48.94902" lon="2.11481">
        <ele>25.86</ele>
        <time>2024-12-04T09:19:36Z</time>
      </trkpt>
      <trkpt lat="48.94892" lon="2.11475">
        <ele>25.45</ele>
        <time>2024-12-04T09:19:44Z</time>
      </trkpt>
      <trkpt lat="48.94889" lon="2.11472">
        <ele>25.42</ele>
        <time>2024-12-04T09:19:45Z</time>
      </trkpt>
      <trkpt lat="48.9488" lon="2.11467">
        <ele>25.95</ele>
        <time>2024-12-04T09:19:49Z</time>
      </trkpt>
      <trkpt lat="48.94871" lon="2.11469">
        <ele>25.6</ele>
        <time>2024-12-04T09:19:55Z</time>
      </trkpt>
      <trkpt lat="48.94871" lon="2.11453">
        <ele>24.43</ele>
        <time>2024-12-04T09:20:09Z</time>
      </trkpt>
      <trkpt lat="48.94872" lon="2.11447">
        <ele>24.58</ele>
        <time>2024-12-04T09:20:12Z</time>
      </trkpt>
      <trkpt lat="48.94873" lon="2.11428">
        <ele>23.87</ele>
        <time>2024-12-04T09:20:25Z</time>
      </trkpt>
      <trkpt lat="48.94867" lon="2.11411">
        <ele>24.38</ele>
        <time>2024-12-04T09:20:38Z</time>
      </trkpt>
      <trkpt lat="48.94865" lon="2.11382">
        <ele>23.86</ele>
        <time>2024-12-04T09:20:55Z</time>
      </trkpt>
      <trkpt lat="48.94867" lon="2.11361">
        <ele>23.85</ele>
        <time>2024-12-04T09:21:06Z</time>
      </trkpt>
      <trkpt lat="48.94867" lon="2.11339">
        <ele>23.62</ele>
        <time>2024-12-04T09:21:17Z</time>
      </trkpt>
      <trkpt lat="48.94873" lon="2.11319">
        <ele>23.36</ele>
        <time>2024-12-04T09:21:26Z</time>
      </trkpt>
      <trkpt lat="48.94874" lon="2.11315">
        <ele>23.47</ele>
        <time>2024-12-04T09:21:27Z</time>
      </trkpt>
      <trkpt lat="48.94875" lon="2.11312">
        <ele>23.81</ele>
        <time>2024-12-04T09:21:28Z</time>
      </trkpt>
      <trkpt lat="48.94876" lon="2.1131">
        <ele>23.67</ele>
        <time>2024-12-04T09:21:29Z</time>
      </trkpt>
      <trkpt lat="48.94877" lon="2.11309">
        <ele>23.6</ele>
        <time>2024-12-04T09:21:30Z</time>
      </trkpt>
      <trkpt lat="48.94877" lon="2.11307">
        <ele>23.67</ele>
        <time>2024-12-04T09:21:31Z</time>
      </trkpt>
      <trkpt lat="48.94878" lon="2.11306">
        <ele>23.58</ele>
        <time>2024-12-04T09:21:32Z</time>
      </trkpt>
      <trkpt lat="48.94878" lon="2.11304">
        <ele>23.54</ele>
        <time>2024-12-04T09:21:33Z</time>
      </trkpt>
      <trkpt lat="48.94878" lon="2.11302">
        <ele>23.52</ele>
        <time>2024-12-04T09:21:34Z</time>
      </trkpt>
      <trkpt lat="48.94879" lon="2.113">
        <ele>23.62</ele>
        <time>2024-12-04T09:21:35Z</time>
      </trkpt>
      <trkpt lat="48.9488" lon="2.11299">
        <ele>23.78</ele>
        <time>2024-12-04T09:21:36Z</time>
      </trkpt>
      <trkpt lat="48.94881" lon="2.11297">
        <ele>23.5</ele>
        <time>2024-12-04T09:21:37Z</time>
      </trkpt>
      <trkpt lat="48.94881" lon="2.11294">
        <ele>23.6</ele>
        <time>2024-12-04T09:21:38Z</time>
      </trkpt>
      <trkpt lat="48.94882" lon="2.11292">
        <ele>23.37</ele>
        <time>2024-12-04T09:21:39Z</time>
      </trkpt>
      <trkpt lat="48.94881" lon="2.11289">
        <ele>23.38</ele>
        <time>2024-12-04T09:21:40Z</time>
      </trkpt>
      <trkpt lat="48.94882" lon="2.11286">
        <ele>23.47</ele>
        <time>2024-12-04T09:21:41Z</time>
      </trkpt>
      <trkpt lat="48.94882" lon="2.11282">
        <ele>23.49</ele>
        <time>2024-12-04T09:21:43Z</time>
      </trkpt>
      <trkpt lat="48.94882" lon="2.11279">
        <ele>23.18</ele>
        <time>2024-12-04T09:21:44Z</time>
      </trkpt>
      <trkpt lat="48.94881" lon="2.11277">
        <ele>23.46</ele>
        <time>2024-12-04T09:21:45Z</time>
      </trkpt>
      <trkpt lat="48.94881" lon="2.11274">
        <ele>23.35</ele>
        <time>2024-12-04T09:21:46Z</time>
      </trkpt>
      <trkpt lat="48.94881" lon="2.11272">
        <ele>23.34</ele>
        <time>2024-12-04T09:21:47Z</time>
      </trkpt>
      <trkpt lat="48.94882" lon="2.1127">
        <ele>23.29</ele>
        <time>2024-12-04T09:21:48Z</time>
      </trkpt>
      <trkpt lat="48.94882" lon="2.11268">
        <ele>23.31</ele>
        <time>2024-12-04T09:21:49Z</time>
      </trkpt>
      <trkpt lat="48.94882" lon="2.11265">
        <ele>23.57</ele>
        <time>2024-12-04T09:21:50Z</time>
      </trkpt>
      <trkpt lat="48.94882" lon="2.11264">
        <ele>23.38</ele>
        <time>2024-12-04T09:21:51Z</time>
      </trkpt>
      <trkpt lat="48.94882" lon="2.11262">
        <ele>23.64</ele>
        <time>2024-12-04T09:21:52Z</time>
      </trkpt>
      <trkpt lat="48.94881" lon="2.11245">
        <ele>23.16</ele>
        <time>2024-12-04T09:22:01Z</time>
      </trkpt>
      <trkpt lat="48.94877" lon="2.11231">
        <ele>23.43</ele>
        <time>2024-12-04T09:22:18Z</time>
      </trkpt>
      <trkpt lat="48.94875" lon="2.11229">
        <ele>23.48</ele>
        <time>2024-12-04T09:22:37Z</time>
      </trkpt>
      <trkpt lat="48.94874" lon="2.11233">
        <ele>23.84</ele>
        <time>2024-12-04T09:22:58Z</time>
      </trkpt>
      <trkpt lat="48.94876" lon="2.11233">
        <ele>24.25</ele>
        <time>2024-12-04T09:23:19Z</time>
      </trkpt>
      <trkpt lat="48.94876" lon="2.11232">
        <ele>24.95</ele>
        <time>2024-12-04T09:23:37Z</time>
      </trkpt>
      <trkpt lat="48.94878" lon="2.11232">
        <ele>25.05</ele>
        <time>2024-12-04T09:23:51Z</time>
      </trkpt>
      <trkpt lat="48.94878" lon="2.11229">
        <ele>25.77</ele>
        <time>2024-12-04T09:24:06Z</time>
      </trkpt>
      <trkpt lat="48.94877" lon="2.1123">
        <ele>26.09</ele>
        <time>2024-12-04T09:24:26Z</time>
      </trkpt>
      <trkpt lat="48.94882" lon="2.1123">
        <ele>26.28</ele>
        <time>2024-12-04T09:24:45Z</time>
      </trkpt>
      <trkpt lat="48.94883" lon="2.11228">
        <ele>26.49</ele>
        <time>2024-12-04T09:25:07Z</time>
      </trkpt>
      <trkpt lat="48.9488" lon="2.11226">
        <ele>26.71</ele>
        <time>2024-12-04T09:25:24Z</time>
      </trkpt>
      <trkpt lat="48.94883" lon="2.11219">
        <ele>26.9</ele>
        <time>2024-12-04T09:25:33Z</time>
      </trkpt>
      <trkpt lat="48.94883" lon="2.11217">
        <ele>26.92</ele>
        <time>2024-12-04T09:25:34Z</time>
      </trkpt>
      <trkpt lat="48.94883" lon="2.11216">
        <ele>26.94</ele>
        <time>2024-12-04T09:25:35Z</time>
      </trkpt>
      <trkpt lat="48.9488" lon="2.112">
        <ele>27.02</ele>
        <time>2024-12-04T09:25:46Z</time>
      </trkpt>
      <trkpt lat="48.94879" lon="2.11199">
        <ele>27.3</ele>
        <time>2024-12-04T09:25:47Z</time>
      </trkpt>
      <trkpt lat="48.94878" lon="2.11197">
        <ele>27.12</ele>
        <time>2024-12-04T09:25:48Z</time>
      </trkpt>
      <trkpt lat="48.94878" lon="2.11194">
        <ele>27.27</ele>
        <time>2024-12-04T09:25:49Z</time>
      </trkpt>
      <trkpt lat="48.94877" lon="2.11192">
        <ele>27.1</ele>
        <time>2024-12-04T09:25:50Z</time>
      </trkpt>
      <trkpt lat="48.94877" lon="2.1119">
        <ele>27.12</ele>
        <time>2024-12-04T09:25:51Z</time>
      </trkpt>
      <trkpt lat="48.94875" lon="2.11174">
        <ele>27.3</ele>
        <time>2024-12-04T09:26:01Z</time>
      </trkpt>
      <trkpt lat="48.94873" lon="2.11148">
        <ele>26.64</ele>
        <time>2024-12-04T09:26:16Z</time>
      </trkpt>
      <trkpt lat="48.94872" lon="2.11137">
        <ele>26.23</ele>
        <time>2024-12-04T09:26:22Z</time>
      </trkpt>
      <trkpt lat="48.94871" lon="2.11135">
        <ele>26.41</ele>
        <time>2024-12-04T09:26:23Z</time>
      </trkpt>
      <trkpt lat="48.94872" lon="2.11129">
        <ele>26.25</ele>
        <time>2024-12-04T09:26:29Z</time>
      </trkpt>
      <trkpt lat="48.94871" lon="2.11134">
        <ele>26.32</ele>
        <time>2024-12-04T09:26:42Z</time>
      </trkpt>
      <trkpt lat="48.94873" lon="2.11116">
        <ele>26.35</ele>
        <time>2024-12-04T09:26:55Z</time>
      </trkpt>
      <trkpt lat="48.94871" lon="2.11098">
        <ele>26.34</ele>
        <time>2024-12-04T09:27:04Z</time>
      </trkpt>
      <trkpt lat="48.94869" lon="2.11072">
        <ele>24.54</ele>
        <time>2024-12-04T09:27:18Z</time>
      </trkpt>
      <trkpt lat="48.94869" lon="2.1104">
        <ele>23.21</ele>
        <time>2024-12-04T09:27:33Z</time>
      </trkpt>
      <trkpt lat="48.94864" lon="2.11014">
        <ele>22.22</ele>
        <time>2024-12-04T09:27:45Z</time>
      </trkpt>
      <trkpt lat="48.94862" lon="2.10988">
        <ele>22.08</ele>
        <time>2024-12-04T09:27:58Z</time>
      </trkpt>
      <trkpt lat="48.94861" lon="2.10966">
        <ele>22.37</ele>
        <time>2024-12-04T09:28:12Z</time>
      </trkpt>
      <trkpt lat="48.94861" lon="2.10936">
        <ele>22.61</ele>
        <time>2024-12-04T09:28:27Z</time>
      </trkpt>
      <trkpt lat="48.9486" lon="2.10906">
        <ele>22.44</ele>
        <time>2024-12-04T09:28:41Z</time>
      </trkpt>
      <trkpt lat="48.94859" lon="2.10883">
        <ele>22.62</ele>
        <time>2024-12-04T09:28:52Z</time>
      </trkpt>
      <trkpt lat="48.94858" lon="2.10872">
        <ele>22.45</ele>
        <time>2024-12-04T09:28:57Z</time>
      </trkpt>
      <trkpt lat="48.94853" lon="2.10852">
        <ele>23.35</ele>
        <time>2024-12-04T09:29:06Z</time>
      </trkpt>
      <trkpt lat="48.94853" lon="2.10844">
        <ele>23.17</ele>
        <time>2024-12-04T09:29:10Z</time>
      </trkpt>
      <trkpt lat="48.94852" lon="2.10841">
        <ele>23.58</ele>
        <time>2024-12-04T09:29:11Z</time>
      </trkpt>
      <trkpt lat="48.94852" lon="2.10814">
        <ele>23.67</ele>
        <time>2024-12-04T09:29:25Z</time>
      </trkpt>
      <trkpt lat="48.9485" lon="2.10787">
        <ele>23.72</ele>
        <time>2024-12-04T09:29:39Z</time>
      </trkpt>
      <trkpt lat="48.94848" lon="2.10761">
        <ele>24.22</ele>
        <time>2024-12-04T09:29:52Z</time>
      </trkpt>
      <trkpt lat="48.94846" lon="2.10739">
        <ele>24.26</ele>
        <time>2024-12-04T09:30:04Z</time>
      </trkpt>
      <trkpt lat="48.94847" lon="2.1071">
        <ele>24.21</ele>
        <time>2024-12-04T09:30:19Z</time>
      </trkpt>
      <trkpt lat="48.94842" lon="2.10678">
        <ele>24.04</ele>
        <time>2024-12-04T09:30:34Z</time>
      </trkpt>
      <trkpt lat="48.9484" lon="2.10648">
        <ele>23.82</ele>
        <time>2024-12-04T09:30:49Z</time>
      </trkpt>
      <trkpt lat="48.9484" lon="2.1062">
        <ele>24.15</ele>
        <time>2024-12-04T09:31:04Z</time>
      </trkpt>
      <trkpt lat="48.94838" lon="2.10587">
        <ele>23.98</ele>
        <time>2024-12-04T09:31:20Z</time>
      </trkpt>
      <trkpt lat="48.94838" lon="2.10584">
        <ele>24.26</ele>
        <time>2024-12-04T09:31:24Z</time>
      </trkpt>
      <trkpt lat="48.94834" lon="2.10561">
        <ele>25</ele>
        <time>2024-12-04T09:31:40Z</time>
      </trkpt>
      <trkpt lat="48.94833" lon="2.10536">
        <ele>24.83</ele>
        <time>2024-12-04T09:31:54Z</time>
      </trkpt>
      <trkpt lat="48.94832" lon="2.10512">
        <ele>25.22</ele>
        <time>2024-12-04T09:32:06Z</time>
      </trkpt>
      <trkpt lat="48.94831" lon="2.10507">
        <ele>25.07</ele>
        <time>2024-12-04T09:32:08Z</time>
      </trkpt>
      <trkpt lat="48.94828" lon="2.10489">
        <ele>25.36</ele>
        <time>2024-12-04T09:32:18Z</time>
      </trkpt>
      <trkpt lat="48.94825" lon="2.10457">
        <ele>25.67</ele>
        <time>2024-12-04T09:32:32Z</time>
      </trkpt>
      <trkpt lat="48.94822" lon="2.10423">
        <ele>26.17</ele>
        <time>2024-12-04T09:32:47Z</time>
      </trkpt>
      <trkpt lat="48.9482" lon="2.10397">
        <ele>26.17</ele>
        <time>2024-12-04T09:33:03Z</time>
      </trkpt>
      <trkpt lat="48.94822" lon="2.10369">
        <ele>26.6</ele>
        <time>2024-12-04T09:33:16Z</time>
      </trkpt>
      <trkpt lat="48.9482" lon="2.10339">
        <ele>26.7</ele>
        <time>2024-12-04T09:33:31Z</time>
      </trkpt>
      <trkpt lat="48.94816" lon="2.10309">
        <ele>27.43</ele>
        <time>2024-12-04T09:33:43Z</time>
      </trkpt>
      <trkpt lat="48.94815" lon="2.10307">
        <ele>27.07</ele>
        <time>2024-12-04T09:33:44Z</time>
      </trkpt>
      <trkpt lat="48.94813" lon="2.10288">
        <ele>26.88</ele>
        <time>2024-12-04T09:33:54Z</time>
      </trkpt>
      <trkpt lat="48.94808" lon="2.10259">
        <ele>27.6</ele>
        <time>2024-12-04T09:34:09Z</time>
      </trkpt>
      <trkpt lat="48.94811" lon="2.10234">
        <ele>27.46</ele>
        <time>2024-12-04T09:34:24Z</time>
      </trkpt>
      <trkpt lat="48.94809" lon="2.10224">
        <ele>27.69</ele>
        <time>2024-12-04T09:34:28Z</time>
      </trkpt>
      <trkpt lat="48.9481" lon="2.1022">
        <ele>27.71</ele>
        <time>2024-12-04T09:34:29Z</time>
      </trkpt>
      <trkpt lat="48.94804" lon="2.102">
        <ele>27.5</ele>
        <time>2024-12-04T09:34:38Z</time>
      </trkpt>
      <trkpt lat="48.94804" lon="2.10169">
        <ele>28.42</ele>
        <time>2024-12-04T09:34:54Z</time>
      </trkpt>
      <trkpt lat="48.94804" lon="2.10165">
        <ele>27.74</ele>
        <time>2024-12-04T09:35:04Z</time>
      </trkpt>
      <trkpt lat="48.94804" lon="2.10167">
        <ele>27.48</ele>
        <time>2024-12-04T09:35:05Z</time>
      </trkpt>
      <trkpt lat="48.94804" lon="2.10167">
        <ele>27.47</ele>
        <time>2024-12-04T09:35:23Z</time>
      </trkpt>
      <trkpt lat="48.94806" lon="2.10163">
        <ele>27.94</ele>
        <time>2024-12-04T09:35:37Z</time>
      </trkpt>
      <trkpt lat="48.94804" lon="2.10163">
        <ele>27.73</ele>
        <time>2024-12-04T09:35:51Z</time>
      </trkpt>
      <trkpt lat="48.94808" lon="2.10161">
        <ele>28.32</ele>
        <time>2024-12-04T09:36:07Z</time>
      </trkpt>
      <trkpt lat="48.94812" lon="2.10156">
        <ele>27.48</ele>
        <time>2024-12-04T09:36:13Z</time>
      </trkpt>
      <trkpt lat="48.94813" lon="2.10154">
        <ele>27.6</ele>
        <time>2024-12-04T09:36:14Z</time>
      </trkpt>
      <trkpt lat="48.94814" lon="2.10153">
        <ele>27.28</ele>
        <time>2024-12-04T09:36:15Z</time>
      </trkpt>
      <trkpt lat="48.94825" lon="2.10144">
        <ele>27.28</ele>
        <time>2024-12-04T09:36:24Z</time>
      </trkpt>
      <trkpt lat="48.94828" lon="2.1014">
        <ele>22.29</ele>
        <time>2024-12-04T09:36:33Z</time>
      </trkpt>
      <trkpt lat="48.94828" lon="2.10139">
        <ele>22.32</ele>
        <time>2024-12-04T09:36:34Z</time>
      </trkpt>
      <trkpt lat="48.9483" lon="2.10137">
        <ele>26.99</ele>
        <time>2024-12-04T09:36:38Z</time>
      </trkpt>
      <trkpt lat="48.94832" lon="2.10137">
        <ele>26.4</ele>
        <time>2024-12-04T09:36:39Z</time>
      </trkpt>
      <trkpt lat="48.94852" lon="2.10121">
        <ele>26.64</ele>
        <time>2024-12-04T09:36:53Z</time>
      </trkpt>
      <trkpt lat="48.94874" lon="2.10094">
        <ele>26.89</ele>
        <time>2024-12-04T09:37:08Z</time>
      </trkpt>
      <trkpt lat="48.94907" lon="2.1007">
        <ele>26.13</ele>
        <time>2024-12-04T09:37:25Z</time>
      </trkpt>
      <trkpt lat="48.94937" lon="2.10051">
        <ele>25.55</ele>
        <time>2024-12-04T09:37:39Z</time>
      </trkpt>
      <trkpt lat="48.94952" lon="2.10029">
        <ele>26.57</ele>
        <time>2024-12-04T09:37:53Z</time>
      </trkpt>
      <trkpt lat="48.9496" lon="2.10027">
        <ele>27.69</ele>
        <time>2024-12-04T09:37:55Z</time>
      </trkpt>
      <trkpt lat="48.94962" lon="2.10024">
        <ele>26.32</ele>
        <time>2024-12-04T09:37:56Z</time>
      </trkpt>
      <trkpt lat="48.94965" lon="2.10022">
        <ele>26.34</ele>
        <time>2024-12-04T09:37:57Z</time>
      </trkpt>
      <trkpt lat="48.94991" lon="2.10003">
        <ele>25.88</ele>
        <time>2024-12-04T09:38:11Z</time>
      </trkpt>
      <trkpt lat="48.94995" lon="2.10001">
        <ele>26.38</ele>
        <time>2024-12-04T09:38:13Z</time>
      </trkpt>
      <trkpt lat="48.94999" lon="2.09997">
        <ele>25.9</ele>
        <time>2024-12-04T09:38:19Z</time>
      </trkpt>
      <trkpt lat="48.95" lon="2.09995">
        <ele>26.16</ele>
        <time>2024-12-04T09:38:33Z</time>
      </trkpt>
      <trkpt lat="48.95" lon="2.09997">
        <ele>26.07</ele>
        <time>2024-12-04T09:38:52Z</time>
      </trkpt>
      <trkpt lat="48.94999" lon="2.09997">
        <ele>26.59</ele>
        <time>2024-12-04T09:39:08Z</time>
      </trkpt>
      <trkpt lat="48.94999" lon="2.09998">
        <ele>26.56</ele>
        <time>2024-12-04T09:39:23Z</time>
      </trkpt>
      <trkpt lat="48.94998" lon="2.09997">
        <ele>27.31</ele>
        <time>2024-12-04T09:39:38Z</time>
      </trkpt>
      <trkpt lat="48.94999" lon="2.1">
        <ele>26.76</ele>
        <time>2024-12-04T09:39:51Z</time>
      </trkpt>
      <trkpt lat="48.94998" lon="2.1">
        <ele>26.95</ele>
        <time>2024-12-04T09:40:08Z</time>
      </trkpt>
      <trkpt lat="48.94996" lon="2.09999">
        <ele>26.59</ele>
        <time>2024-12-04T09:40:10Z</time>
      </trkpt>
      <trkpt lat="48.94997" lon="2.10003">
        <ele>27.06</ele>
        <time>2024-12-04T09:40:18Z</time>
      </trkpt>
      <trkpt lat="48.94997" lon="2.10002">
        <ele>27.14</ele>
        <time>2024-12-04T09:40:31Z</time>
      </trkpt>
      <trkpt lat="48.94997" lon="2.10002">
        <ele>27.5</ele>
        <time>2024-12-04T09:40:41Z</time>
      </trkpt>
      <trkpt lat="48.94997" lon="2.10002">
        <ele>27.24</ele>
        <time>2024-12-04T09:40:53Z</time>
      </trkpt>
      <trkpt lat="48.94996" lon="2.10003">
        <ele>27.26</ele>
        <time>2024-12-04T09:41:07Z</time>
      </trkpt>
      <trkpt lat="48.94998" lon="2.10004">
        <ele>28.17</ele>
        <time>2024-12-04T09:41:20Z</time>
      </trkpt>
      <trkpt lat="48.94998" lon="2.10005">
        <ele>27.81</ele>
        <time>2024-12-04T09:41:21Z</time>
      </trkpt>
      <trkpt lat="48.95002" lon="2.10007">
        <ele>28.19</ele>
        <time>2024-12-04T09:41:30Z</time>
      </trkpt>
      <trkpt lat="48.95008" lon="2.1001">
        <ele>27.84</ele>
        <time>2024-12-04T09:41:37Z</time>
      </trkpt>
      <trkpt lat="48.95016" lon="2.10017">
        <ele>28.66</ele>
        <time>2024-12-04T09:41:45Z</time>
      </trkpt>
      <trkpt lat="48.95017" lon="2.10018">
        <ele>28.6</ele>
        <time>2024-12-04T09:41:46Z</time>
      </trkpt>
      <trkpt lat="48.95018" lon="2.10019">
        <ele>28.45</ele>
        <time>2024-12-04T09:41:47Z</time>
      </trkpt>
      <trkpt lat="48.95026" lon="2.10024">
        <ele>28.29</ele>
        <time>2024-12-04T09:41:54Z</time>
      </trkpt>
      <trkpt lat="48.95041" lon="2.10032">
        <ele>27.91</ele>
        <time>2024-12-04T09:42:03Z</time>
      </trkpt>
      <trkpt lat="48.95049" lon="2.10045">
        <ele>27.62</ele>
        <time>2024-12-04T09:42:12Z</time>
      </trkpt>
      <trkpt lat="48.95072" lon="2.10063">
        <ele>25.56</ele>
        <time>2024-12-04T09:42:30Z</time>
      </trkpt>
      <trkpt lat="48.95091" lon="2.10074">
        <ele>25.22</ele>
        <time>2024-12-04T09:42:42Z</time>
      </trkpt>
      <trkpt lat="48.95105" lon="2.10084">
        <ele>24.79</ele>
        <time>2024-12-04T09:42:52Z</time>
      </trkpt>
      <trkpt lat="48.95121" lon="2.10097">
        <ele>23.65</ele>
        <time>2024-12-04T09:43:04Z</time>
      </trkpt>
      <trkpt lat="48.95131" lon="2.10107">
        <ele>22.43</ele>
        <time>2024-12-04T09:43:13Z</time>
      </trkpt>
      <trkpt lat="48.95141" lon="2.10124">
        <ele>22.85</ele>
        <time>2024-12-04T09:43:25Z</time>
      </trkpt>
      <trkpt lat="48.95151" lon="2.10136">
        <ele>21.12</ele>
        <time>2024-12-04T09:43:35Z</time>
      </trkpt>
      <trkpt lat="48.95152" lon="2.10138">
        <ele>22.18</ele>
        <time>2024-12-04T09:43:36Z</time>
      </trkpt>
      <trkpt lat="48.95152" lon="2.10142">
        <ele>22.15</ele>
        <time>2024-12-04T09:43:38Z</time>
      </trkpt>
      <trkpt lat="48.95151" lon="2.10145">
        <ele>22</ele>
        <time>2024-12-04T09:43:39Z</time>
      </trkpt>
      <trkpt lat="48.95151" lon="2.10148">
        <ele>22.11</ele>
        <time>2024-12-04T09:43:40Z</time>
      </trkpt>
      <trkpt lat="48.95151" lon="2.10164">
        <ele>21.08</ele>
        <time>2024-12-04T09:43:50Z</time>
      </trkpt>
      <trkpt lat="48.9515" lon="2.1018">
        <ele>21.72</ele>
        <time>2024-12-04T09:43:58Z</time>
      </trkpt>
      <trkpt lat="48.95149" lon="2.10184">
        <ele>21.94</ele>
        <time>2024-12-04T09:43:59Z</time>
      </trkpt>
      <trkpt lat="48.95149" lon="2.10197">
        <ele>20.79</ele>
        <time>2024-12-04T09:44:04Z</time>
      </trkpt>
      <trkpt lat="48.95148" lon="2.102">
        <ele>20.87</ele>
        <time>2024-12-04T09:44:05Z</time>
      </trkpt>
      <trkpt lat="48.95149" lon="2.10211">
        <ele>20.79</ele>
        <time>2024-12-04T09:44:09Z</time>
      </trkpt>
      <trkpt lat="48.95148" lon="2.10214">
        <ele>20.76</ele>
        <time>2024-12-04T09:44:10Z</time>
      </trkpt>
      <trkpt lat="48.95149" lon="2.10235">
        <ele>21.06</ele>
        <time>2024-12-04T09:44:19Z</time>
      </trkpt>
      <trkpt lat="48.9515" lon="2.10275">
        <ele>20.87</ele>
        <time>2024-12-04T09:44:35Z</time>
      </trkpt>
      <trkpt lat="48.9515" lon="2.10278">
        <ele>20.61</ele>
        <time>2024-12-04T09:44:36Z</time>
      </trkpt>
      <trkpt lat="48.95149" lon="2.10281">
        <ele>20.66</ele>
        <time>2024-12-04T09:44:37Z</time>
      </trkpt>
      <trkpt lat="48.95148" lon="2.10284">
        <ele>20.77</ele>
        <time>2024-12-04T09:44:38Z</time>
      </trkpt>
      <trkpt lat="48.95147" lon="2.10287">
        <ele>21.12</ele>
        <time>2024-12-04T09:44:39Z</time>
      </trkpt>
      <trkpt lat="48.95146" lon="2.1029">
        <ele>20.94</ele>
        <time>2024-12-04T09:44:40Z</time>
      </trkpt>
      <trkpt lat="48.9514" lon="2.10306">
        <ele>21.12</ele>
        <time>2024-12-04T09:44:48Z</time>
      </trkpt>
      <trkpt lat="48.95135" lon="2.10324">
        <ele>21.01</ele>
        <time>2024-12-04T09:44:57Z</time>
      </trkpt>
      <trkpt lat="48.95136" lon="2.10326">
        <ele>20.98</ele>
        <time>2024-12-04T09:44:58Z</time>
      </trkpt>
      <trkpt lat="48.95136" lon="2.10329">
        <ele>21.12</ele>
        <time>2024-12-04T09:44:59Z</time>
      </trkpt>
      <trkpt lat="48.95136" lon="2.10331">
        <ele>21.76</ele>
        <time>2024-12-04T09:45:00Z</time>
      </trkpt>
      <trkpt lat="48.95136" lon="2.10333">
        <ele>20.92</ele>
        <time>2024-12-04T09:45:01Z</time>
      </trkpt>
      <trkpt lat="48.95137" lon="2.10335">
        <ele>21.04</ele>
        <time>2024-12-04T09:45:02Z</time>
      </trkpt>
      <trkpt lat="48.95137" lon="2.10337">
        <ele>21.75</ele>
        <time>2024-12-04T09:45:03Z</time>
      </trkpt>
      <trkpt lat="48.95136" lon="2.1034">
        <ele>20.51</ele>
        <time>2024-12-04T09:45:04Z</time>
      </trkpt>
      <trkpt lat="48.95136" lon="2.10342">
        <ele>21.09</ele>
        <time>2024-12-04T09:45:05Z</time>
      </trkpt>
      <trkpt lat="48.95136" lon="2.10344">
        <ele>21.02</ele>
        <time>2024-12-04T09:45:06Z</time>
      </trkpt>
      <trkpt lat="48.95137" lon="2.10346">
        <ele>20.71</ele>
        <time>2024-12-04T09:45:07Z</time>
      </trkpt>
      <trkpt lat="48.95138" lon="2.10349">
        <ele>20.72</ele>
        <time>2024-12-04T09:45:08Z</time>
      </trkpt>
      <trkpt lat="48.95138" lon="2.1035">
        <ele>21.17</ele>
        <time>2024-12-04T09:45:09Z</time>
      </trkpt>
      <trkpt lat="48.95139" lon="2.10353">
        <ele>21.28</ele>
        <time>2024-12-04T09:45:10Z</time>
      </trkpt>
      <trkpt lat="48.95139" lon="2.10354">
        <ele>21</ele>
        <time>2024-12-04T09:45:11Z</time>
      </trkpt>
      <trkpt lat="48.9514" lon="2.10356">
        <ele>21.2</ele>
        <time>2024-12-04T09:45:12Z</time>
      </trkpt>
      <trkpt lat="48.95141" lon="2.10358">
        <ele>22.17</ele>
        <time>2024-12-04T09:45:13Z</time>
      </trkpt>
      <trkpt lat="48.95143" lon="2.10366">
        <ele>21.1</ele>
        <time>2024-12-04T09:45:17Z</time>
      </trkpt>
      <trkpt lat="48.95143" lon="2.10368">
        <ele>21.41</ele>
        <time>2024-12-04T09:45:18Z</time>
      </trkpt>
      <trkpt lat="48.95145" lon="2.10384">
        <ele>20.92</ele>
        <time>2024-12-04T09:45:27Z</time>
      </trkpt>
      <trkpt lat="48.95147" lon="2.10395">
        <ele>21.6</ele>
        <time>2024-12-04T09:45:34Z</time>
      </trkpt>
      <trkpt lat="48.95147" lon="2.10402">
        <ele>21.47</ele>
        <time>2024-12-04T09:45:38Z</time>
      </trkpt>
      <trkpt lat="48.95148" lon="2.10404">
        <ele>21.1</ele>
        <time>2024-12-04T09:45:39Z</time>
      </trkpt>
      <trkpt lat="48.95148" lon="2.10408">
        <ele>20.92</ele>
        <time>2024-12-04T09:45:41Z</time>
      </trkpt>
      <trkpt lat="48.95153" lon="2.10428">
        <ele>20.96</ele>
        <time>2024-12-04T09:45:55Z</time>
      </trkpt>
      <trkpt lat="48.95155" lon="2.10457">
        <ele>20.73</ele>
        <time>2024-12-04T09:46:09Z</time>
      </trkpt>
      <trkpt lat="48.95155" lon="2.1046">
        <ele>20.71</ele>
        <time>2024-12-04T09:46:10Z</time>
      </trkpt>
      <trkpt lat="48.95159" lon="2.10485">
        <ele>20.75</ele>
        <time>2024-12-04T09:46:24Z</time>
      </trkpt>
      <trkpt lat="48.9516" lon="2.10493">
        <ele>20.76</ele>
        <time>2024-12-04T09:46:28Z</time>
      </trkpt>
      <trkpt lat="48.95166" lon="2.10514">
        <ele>20.48</ele>
        <time>2024-12-04T09:46:39Z</time>
      </trkpt>
      <trkpt lat="48.95166" lon="2.10518">
        <ele>20.47</ele>
        <time>2024-12-04T09:46:40Z</time>
      </trkpt>
      <trkpt lat="48.95167" lon="2.10525">
        <ele>20.66</ele>
        <time>2024-12-04T09:46:44Z</time>
      </trkpt>
      <trkpt lat="48.95168" lon="2.1055">
        <ele>20.3</ele>
        <time>2024-12-04T09:46:55Z</time>
      </trkpt>
      <trkpt lat="48.95177" lon="2.10572">
        <ele>20.38</ele>
        <time>2024-12-04T09:47:10Z</time>
      </trkpt>
      <trkpt lat="48.95177" lon="2.10604">
        <ele>20.03</ele>
        <time>2024-12-04T09:47:24Z</time>
      </trkpt>
      <trkpt lat="48.95178" lon="2.10622">
        <ele>20.19</ele>
        <time>2024-12-04T09:47:31Z</time>
      </trkpt>
      <trkpt lat="48.95178" lon="2.10624">
        <ele>20.18</ele>
        <time>2024-12-04T09:47:32Z</time>
      </trkpt>
      <trkpt lat="48.95177" lon="2.10629">
        <ele>20.09</ele>
        <time>2024-12-04T09:47:34Z</time>
      </trkpt>
      <trkpt lat="48.95174" lon="2.10648">
        <ele>19.73</ele>
        <time>2024-12-04T09:47:43Z</time>
      </trkpt>
      <trkpt lat="48.95173" lon="2.10651">
        <ele>20.22</ele>
        <time>2024-12-04T09:47:44Z</time>
      </trkpt>
      <trkpt lat="48.95173" lon="2.10652">
        <ele>20.13</ele>
        <time>2024-12-04T09:47:45Z</time>
      </trkpt>
      <trkpt lat="48.95172" lon="2.10654">
        <ele>19.74</ele>
        <time>2024-12-04T09:47:46Z</time>
      </trkpt>
      <trkpt lat="48.95171" lon="2.10655">
        <ele>19.65</ele>
        <time>2024-12-04T09:47:47Z</time>
      </trkpt>
      <trkpt lat="48.9517" lon="2.10656">
        <ele>20.37</ele>
        <time>2024-12-04T09:47:48Z</time>
      </trkpt>
      <trkpt lat="48.95159" lon="2.10677">
        <ele>19.16</ele>
        <time>2024-12-04T09:47:59Z</time>
      </trkpt>
      <trkpt lat="48.95158" lon="2.10679">
        <ele>20.01</ele>
        <time>2024-12-04T09:48:00Z</time>
      </trkpt>
      <trkpt lat="48.95157" lon="2.10681">
        <ele>19.9</ele>
        <time>2024-12-04T09:48:01Z</time>
      </trkpt>
      <trkpt lat="48.95156" lon="2.10683">
        <ele>19.14</ele>
        <time>2024-12-04T09:48:02Z</time>
      </trkpt>
      <trkpt lat="48.95154" lon="2.10685">
        <ele>19.34</ele>
        <time>2024-12-04T09:48:03Z</time>
      </trkpt>
      <trkpt lat="48.95154" lon="2.10688">
        <ele>19.43</ele>
        <time>2024-12-04T09:48:04Z</time>
      </trkpt>
      <trkpt lat="48.9515" lon="2.10699">
        <ele>19.89</ele>
        <time>2024-12-04T09:48:10Z</time>
      </trkpt>
      <trkpt lat="48.95149" lon="2.107">
        <ele>19.92</ele>
        <time>2024-12-04T09:48:11Z</time>
      </trkpt>
      <trkpt lat="48.95148" lon="2.10702">
        <ele>19.9</ele>
        <time>2024-12-04T09:48:12Z</time>
      </trkpt>
      <trkpt lat="48.95147" lon="2.10706">
        <ele>19.88</ele>
        <time>2024-12-04T09:48:14Z</time>
      </trkpt>
      <trkpt lat="48.95143" lon="2.10714">
        <ele>20.47</ele>
        <time>2024-12-04T09:48:27Z</time>
      </trkpt>
      <trkpt lat="48.95141" lon="2.10719">
        <ele>20.12</ele>
        <time>2024-12-04T09:48:51Z</time>
      </trkpt>
      <trkpt lat="48.9514" lon="2.1072">
        <ele>20.19</ele>
        <time>2024-12-04T09:49:11Z</time>
      </trkpt>
      <trkpt lat="48.95144" lon="2.10729">
        <ele>20.74</ele>
        <time>2024-12-04T09:49:27Z</time>
      </trkpt>
      <trkpt lat="48.95145" lon="2.1073">
        <ele>20.98</ele>
        <time>2024-12-04T09:49:28Z</time>
      </trkpt>
      <trkpt lat="48.95145" lon="2.10733">
        <ele>20.86</ele>
        <time>2024-12-04T09:49:29Z</time>
      </trkpt>
      <trkpt lat="48.95145" lon="2.10735">
        <ele>21.79</ele>
        <time>2024-12-04T09:49:30Z</time>
      </trkpt>
      <trkpt lat="48.95151" lon="2.10753">
        <ele>21.45</ele>
        <time>2024-12-04T09:49:40Z</time>
      </trkpt>
      <trkpt lat="48.95154" lon="2.10762">
        <ele>21.67</ele>
        <time>2024-12-04T09:49:45Z</time>
      </trkpt>
      <trkpt lat="48.95154" lon="2.10764">
        <ele>22.46</ele>
        <time>2024-12-04T09:49:46Z</time>
      </trkpt>
      <trkpt lat="48.95157" lon="2.10779">
        <ele>23.37</ele>
        <time>2024-12-04T09:49:53Z</time>
      </trkpt>
      <trkpt lat="48.95159" lon="2.10791">
        <ele>23.76</ele>
        <time>2024-12-04T09:49:58Z</time>
      </trkpt>
      <trkpt lat="48.95165" lon="2.10826">
        <ele>25.26</ele>
        <time>2024-12-04T09:50:13Z</time>
      </trkpt>
      <trkpt lat="48.95169" lon="2.10836">
        <ele>26.08</ele>
        <time>2024-12-04T09:50:18Z</time>
      </trkpt>
      <trkpt lat="48.9517" lon="2.10837">
        <ele>24.98</ele>
        <time>2024-12-04T09:50:19Z</time>
      </trkpt>
      <trkpt lat="48.95179" lon="2.10853">
        <ele>26.31</ele>
        <time>2024-12-04T09:50:28Z</time>
      </trkpt>
      <trkpt lat="48.9518" lon="2.10854">
        <ele>26.6</ele>
        <time>2024-12-04T09:50:29Z</time>
      </trkpt>
      <trkpt lat="48.95183" lon="2.10857">
        <ele>25.86</ele>
        <time>2024-12-04T09:50:31Z</time>
      </trkpt>
      <trkpt lat="48.95185" lon="2.10862">
        <ele>27.28</ele>
        <time>2024-12-04T09:50:36Z</time>
      </trkpt>
      <trkpt lat="48.95193" lon="2.10877">
        <ele>27.31</ele>
        <time>2024-12-04T09:50:50Z</time>
      </trkpt>
      <trkpt lat="48.95203" lon="2.10892">
        <ele>27.77</ele>
        <time>2024-12-04T09:51:03Z</time>
      </trkpt>
      <trkpt lat="48.95221" lon="2.10911">
        <ele>27.46</ele>
        <time>2024-12-04T09:51:18Z</time>
      </trkpt>
      <trkpt lat="48.95241" lon="2.10933">
        <ele>27.38</ele>
        <time>2024-12-04T09:51:33Z</time>
      </trkpt>
      <trkpt lat="48.9526" lon="2.10953">
        <ele>26.82</ele>
        <time>2024-12-04T09:51:49Z</time>
      </trkpt>
      <trkpt lat="48.95268" lon="2.10962">
        <ele>27.4</ele>
        <time>2024-12-04T09:51:58Z</time>
      </trkpt>
      <trkpt lat="48.95281" lon="2.10979">
        <ele>27.44</ele>
        <time>2024-12-04T09:52:12Z</time>
      </trkpt>
      <trkpt lat="48.95299" lon="2.10994">
        <ele>27.23</ele>
        <time>2024-12-04T09:52:26Z</time>
      </trkpt>
      <trkpt lat="48.95312" lon="2.11013">
        <ele>26.66</ele>
        <time>2024-12-04T09:52:37Z</time>
      </trkpt>
      <trkpt lat="48.95318" lon="2.11017">
        <ele>26</ele>
        <time>2024-12-04T09:52:41Z</time>
      </trkpt>
      <trkpt lat="48.95319" lon="2.11019">
        <ele>26.24</ele>
        <time>2024-12-04T09:52:42Z</time>
      </trkpt>
      <trkpt lat="48.95323" lon="2.11022">
        <ele>26.49</ele>
        <time>2024-12-04T09:52:44Z</time>
      </trkpt>
      <trkpt lat="48.95324" lon="2.11024">
        <ele>26.43</ele>
        <time>2024-12-04T09:52:45Z</time>
      </trkpt>
      <trkpt lat="48.95326" lon="2.11024">
        <ele>26.61</ele>
        <time>2024-12-04T09:52:46Z</time>
      </trkpt>
      <trkpt lat="48.95327" lon="2.11025">
        <ele>27.06</ele>
        <time>2024-12-04T09:52:47Z</time>
      </trkpt>
      <trkpt lat="48.95329" lon="2.11026">
        <ele>26.66</ele>
        <time>2024-12-04T09:52:48Z</time>
      </trkpt>
      <trkpt lat="48.95343" lon="2.11037">
        <ele>26.68</ele>
        <time>2024-12-04T09:52:58Z</time>
      </trkpt>
      <trkpt lat="48.95355" lon="2.11051">
        <ele>25.8</ele>
        <time>2024-12-04T09:53:08Z</time>
      </trkpt>
      <trkpt lat="48.95357" lon="2.11051">
        <ele>25.63</ele>
        <time>2024-12-04T09:53:09Z</time>
      </trkpt>
      <trkpt lat="48.95362" lon="2.11056">
        <ele>25.6</ele>
        <time>2024-12-04T09:53:13Z</time>
      </trkpt>
      <trkpt lat="48.95373" lon="2.11067">
        <ele>25.36</ele>
        <time>2024-12-04T09:53:21Z</time>
      </trkpt>
      <trkpt lat="48.95375" lon="2.11068">
        <ele>25.02</ele>
        <time>2024-12-04T09:53:22Z</time>
      </trkpt>
      <trkpt lat="48.95383" lon="2.11077">
        <ele>25.21</ele>
        <time>2024-12-04T09:53:30Z</time>
      </trkpt>
      <trkpt lat="48.95393" lon="2.11088">
        <ele>25.09</ele>
        <time>2024-12-04T09:53:38Z</time>
      </trkpt>
      <trkpt lat="48.95394" lon="2.1109">
        <ele>25.27</ele>
        <time>2024-12-04T09:53:39Z</time>
      </trkpt>
      <trkpt lat="48.95395" lon="2.11092">
        <ele>24.92</ele>
        <time>2024-12-04T09:53:40Z</time>
      </trkpt>
      <trkpt lat="48.95397" lon="2.11093">
        <ele>25.35</ele>
        <time>2024-12-04T09:53:41Z</time>
      </trkpt>
      <trkpt lat="48.95398" lon="2.11094">
        <ele>25.18</ele>
        <time>2024-12-04T09:53:42Z</time>
      </trkpt>
      <trkpt lat="48.95399" lon="2.11095">
        <ele>24.94</ele>
        <time>2024-12-04T09:53:43Z</time>
      </trkpt>
      <trkpt lat="48.95401" lon="2.11096">
        <ele>25.3</ele>
        <time>2024-12-04T09:53:44Z</time>
      </trkpt>
      <trkpt lat="48.9541" lon="2.11111">
        <ele>24.75</ele>
        <time>2024-12-04T09:53:54Z</time>
      </trkpt>
      <trkpt lat="48.95425" lon="2.11122">
        <ele>24.41</ele>
        <time>2024-12-04T09:54:05Z</time>
      </trkpt>
      <trkpt lat="48.95437" lon="2.11134">
        <ele>24.34</ele>
        <time>2024-12-04T09:54:15Z</time>
      </trkpt>
      <trkpt lat="48.95438" lon="2.11135">
        <ele>24</ele>
        <time>2024-12-04T09:54:16Z</time>
      </trkpt>
      <trkpt lat="48.95441" lon="2.11139">
        <ele>23.95</ele>
        <time>2024-12-04T09:54:18Z</time>
      </trkpt>
      <trkpt lat="48.95442" lon="2.11142">
        <ele>24.79</ele>
        <time>2024-12-04T09:54:19Z</time>
      </trkpt>
      <trkpt lat="48.95443" lon="2.11144">
        <ele>24.17</ele>
        <time>2024-12-04T09:54:20Z</time>
      </trkpt>
      <trkpt lat="48.95444" lon="2.11145">
        <ele>24.33</ele>
        <time>2024-12-04T09:54:21Z</time>
      </trkpt>
      <trkpt lat="48.95447" lon="2.11149">
        <ele>24.45</ele>
        <time>2024-12-04T09:54:25Z</time>
      </trkpt>
      <trkpt lat="48.95451" lon="2.11153">
        <ele>23.95</ele>
        <time>2024-12-04T09:54:29Z</time>
      </trkpt>
      <trkpt lat="48.95464" lon="2.11166">
        <ele>23.93</ele>
        <time>2024-12-04T09:54:38Z</time>
      </trkpt>
      <trkpt lat="48.95474" lon="2.1118">
        <ele>23.72</ele>
        <time>2024-12-04T09:54:47Z</time>
      </trkpt>
      <trkpt lat="48.95488" lon="2.11195">
        <ele>23.64</ele>
        <time>2024-12-04T09:54:57Z</time>
      </trkpt>
      <trkpt lat="48.95491" lon="2.11199">
        <ele>23.49</ele>
        <time>2024-12-04T09:55:00Z</time>
      </trkpt>
      <trkpt lat="48.95492" lon="2.11201">
        <ele>23.41</ele>
        <time>2024-12-04T09:55:01Z</time>
      </trkpt>
      <trkpt lat="48.95493" lon="2.11201">
        <ele>23.29</ele>
        <time>2024-12-04T09:55:02Z</time>
      </trkpt>
      <trkpt lat="48.95494" lon="2.11202">
        <ele>23.38</ele>
        <time>2024-12-04T09:55:03Z</time>
      </trkpt>
      <trkpt lat="48.95496" lon="2.11204">
        <ele>23.11</ele>
        <time>2024-12-04T09:55:04Z</time>
      </trkpt>
      <trkpt lat="48.95502" lon="2.1121">
        <ele>23.71</ele>
        <time>2024-12-04T09:55:11Z</time>
      </trkpt>
      <trkpt lat="48.95514" lon="2.11223">
        <ele>23.62</ele>
        <time>2024-12-04T09:55:21Z</time>
      </trkpt>
      <trkpt lat="48.95525" lon="2.1123">
        <ele>23.87</ele>
        <time>2024-12-04T09:55:31Z</time>
      </trkpt>
      <trkpt lat="48.95536" lon="2.11244">
        <ele>23.71</ele>
        <time>2024-12-04T09:55:40Z</time>
      </trkpt>
      <trkpt lat="48.95544" lon="2.11258">
        <ele>23.23</ele>
        <time>2024-12-04T09:55:52Z</time>
      </trkpt>
      <trkpt lat="48.95551" lon="2.1126">
        <ele>23.33</ele>
        <time>2024-12-04T09:56:05Z</time>
      </trkpt>
      <trkpt lat="48.95552" lon="2.11261">
        <ele>22.95</ele>
        <time>2024-12-04T09:56:06Z</time>
      </trkpt>
      <trkpt lat="48.95553" lon="2.11262">
        <ele>23.46</ele>
        <time>2024-12-04T09:56:07Z</time>
      </trkpt>
      <trkpt lat="48.95567" lon="2.11274">
        <ele>23.25</ele>
        <time>2024-12-04T09:56:19Z</time>
      </trkpt>
      <trkpt lat="48.95577" lon="2.11285">
        <ele>23.2</ele>
        <time>2024-12-04T09:56:30Z</time>
      </trkpt>
      <trkpt lat="48.95587" lon="2.11297">
        <ele>22.99</ele>
        <time>2024-12-04T09:56:41Z</time>
      </trkpt>
      <trkpt lat="48.9559" lon="2.11299">
        <ele>22.89</ele>
        <time>2024-12-04T09:56:43Z</time>
      </trkpt>
      <trkpt lat="48.95591" lon="2.113">
        <ele>23.06</ele>
        <time>2024-12-04T09:56:44Z</time>
      </trkpt>
      <trkpt lat="48.95593" lon="2.11301">
        <ele>23.39</ele>
        <time>2024-12-04T09:56:45Z</time>
      </trkpt>
      <trkpt lat="48.95603" lon="2.1131">
        <ele>23.22</ele>
        <time>2024-12-04T09:56:54Z</time>
      </trkpt>
      <trkpt lat="48.95614" lon="2.11323">
        <ele>23.65</ele>
        <time>2024-12-04T09:57:03Z</time>
      </trkpt>
      <trkpt lat="48.95624" lon="2.11333">
        <ele>23.27</ele>
        <time>2024-12-04T09:57:12Z</time>
      </trkpt>
      <trkpt lat="48.95633" lon="2.11341">
        <ele>22.95</ele>
        <time>2024-12-04T09:57:21Z</time>
      </trkpt>
      <trkpt lat="48.9565" lon="2.1136">
        <ele>23.12</ele>
        <time>2024-12-04T09:57:33Z</time>
      </trkpt>
      <trkpt lat="48.9566" lon="2.1137">
        <ele>22.92</ele>
        <time>2024-12-04T09:57:42Z</time>
      </trkpt>
      <trkpt lat="48.95665" lon="2.11375">
        <ele>23.41</ele>
        <time>2024-12-04T09:57:47Z</time>
      </trkpt>
      <trkpt lat="48.95668" lon="2.11379">
        <ele>23.01</ele>
        <time>2024-12-04T09:57:50Z</time>
      </trkpt>
      <trkpt lat="48.95676" lon="2.11388">
        <ele>23.62</ele>
        <time>2024-12-04T09:57:57Z</time>
      </trkpt>
      <trkpt lat="48.95677" lon="2.11388">
        <ele>23.39</ele>
        <time>2024-12-04T09:57:58Z</time>
      </trkpt>
      <trkpt lat="48.95679" lon="2.1139">
        <ele>23.54</ele>
        <time>2024-12-04T09:58:00Z</time>
      </trkpt>
      <trkpt lat="48.9568" lon="2.11392">
        <ele>23.36</ele>
        <time>2024-12-04T09:58:01Z</time>
      </trkpt>
      <trkpt lat="48.95693" lon="2.11405">
        <ele>23.08</ele>
        <time>2024-12-04T09:58:12Z</time>
      </trkpt>
      <trkpt lat="48.95707" lon="2.11414">
        <ele>23.31</ele>
        <time>2024-12-04T09:58:24Z</time>
      </trkpt>
      <trkpt lat="48.95716" lon="2.11422">
        <ele>22.98</ele>
        <time>2024-12-04T09:58:34Z</time>
      </trkpt>
      <trkpt lat="48.95718" lon="2.11427">
        <ele>22.92</ele>
        <time>2024-12-04T09:58:37Z</time>
      </trkpt>
      <trkpt lat="48.95731" lon="2.11444">
        <ele>22.81</ele>
        <time>2024-12-04T09:58:48Z</time>
      </trkpt>
      <trkpt lat="48.95744" lon="2.11456">
        <ele>22.62</ele>
        <time>2024-12-04T09:58:58Z</time>
      </trkpt>
      <trkpt lat="48.95757" lon="2.11468">
        <ele>23.33</ele>
        <time>2024-12-04T09:59:09Z</time>
      </trkpt>
      <trkpt lat="48.95767" lon="2.11488">
        <ele>22.48</ele>
        <time>2024-12-04T09:59:20Z</time>
      </trkpt>
      <trkpt lat="48.95768" lon="2.1149">
        <ele>22.43</ele>
        <time>2024-12-04T09:59:21Z</time>
      </trkpt>
      <trkpt lat="48.95778" lon="2.115">
        <ele>22.77</ele>
        <time>2024-12-04T09:59:29Z</time>
      </trkpt>
      <trkpt lat="48.95788" lon="2.11511">
        <ele>22.2</ele>
        <time>2024-12-04T09:59:38Z</time>
      </trkpt>
      <trkpt lat="48.95804" lon="2.11524">
        <ele>21.59</ele>
        <time>2024-12-04T09:59:49Z</time>
      </trkpt>
      <trkpt lat="48.95809" lon="2.1153">
        <ele>21.45</ele>
        <time>2024-12-04T09:59:54Z</time>
      </trkpt>
      <trkpt lat="48.95812" lon="2.11532">
        <ele>22.03</ele>
        <time>2024-12-04T09:59:56Z</time>
      </trkpt>
      <trkpt lat="48.95813" lon="2.11534">
        <ele>22.1</ele>
        <time>2024-12-04T09:59:57Z</time>
      </trkpt>
      <trkpt lat="48.95819" lon="2.11535">
        <ele>22.14</ele>
        <time>2024-12-04T10:00:06Z</time>
      </trkpt>
      <trkpt lat="48.95824" lon="2.11536">
        <ele>22.64</ele>
        <time>2024-12-04T10:00:17Z</time>
      </trkpt>
      <trkpt lat="48.95823" lon="2.11537">
        <ele>22.66</ele>
        <time>2024-12-04T10:00:34Z</time>
      </trkpt>
      <trkpt lat="48.95822" lon="2.11541">
        <ele>22.22</ele>
        <time>2024-12-04T10:00:56Z</time>
      </trkpt>
      <trkpt lat="48.95822" lon="2.11538">
        <ele>22.96</ele>
        <time>2024-12-04T10:01:17Z</time>
      </trkpt>
      <trkpt lat="48.95821" lon="2.11536">
        <ele>22.79</ele>
        <time>2024-12-04T10:01:44Z</time>
      </trkpt>
      <trkpt lat="48.95819" lon="2.11537">
        <ele>22.99</ele>
        <time>2024-12-04T10:02:07Z</time>
      </trkpt>
      <trkpt lat="48.95819" lon="2.11535">
        <ele>23.65</ele>
        <time>2024-12-04T10:02:30Z</time>
      </trkpt>
      <trkpt lat="48.9582" lon="2.11535">
        <ele>23.76</ele>
        <time>2024-12-04T10:02:55Z</time>
      </trkpt>
      <trkpt lat="48.95819" lon="2.11533">
        <ele>23.51</ele>
        <time>2024-12-04T10:03:13Z</time>
      </trkpt>
      <trkpt lat="48.9582" lon="2.11532">
        <ele>23.57</ele>
        <time>2024-12-04T10:03:36Z</time>
      </trkpt>
      <trkpt lat="48.95821" lon="2.11531">
        <ele>24.43</ele>
        <time>2024-12-04T10:03:54Z</time>
      </trkpt>
      <trkpt lat="48.95822" lon="2.1153">
        <ele>23.89</ele>
        <time>2024-12-04T10:04:11Z</time>
      </trkpt>
      <trkpt lat="48.95825" lon="2.11533">
        <ele>24.09</ele>
        <time>2024-12-04T10:04:18Z</time>
      </trkpt>
      <trkpt lat="48.95826" lon="2.11534">
        <ele>24.26</ele>
        <time>2024-12-04T10:04:19Z</time>
      </trkpt>
      <trkpt lat="48.95827" lon="2.11535">
        <ele>23.91</ele>
        <time>2024-12-04T10:04:20Z</time>
      </trkpt>
      <trkpt lat="48.9584" lon="2.11545">
        <ele>24.12</ele>
        <time>2024-12-04T10:04:31Z</time>
      </trkpt>
      <trkpt lat="48.95854" lon="2.11549">
        <ele>24.45</ele>
        <time>2024-12-04T10:04:41Z</time>
      </trkpt>
      <trkpt lat="48.95867" lon="2.11556">
        <ele>24.53</ele>
        <time>2024-12-04T10:04:52Z</time>
      </trkpt>
      <trkpt lat="48.95872" lon="2.11558">
        <ele>24.74</ele>
        <time>2024-12-04T10:04:56Z</time>
      </trkpt>
      <trkpt lat="48.95873" lon="2.11558">
        <ele>24.96</ele>
        <time>2024-12-04T10:04:57Z</time>
      </trkpt>
      <trkpt lat="48.95887" lon="2.11568">
        <ele>25.98</ele>
        <time>2024-12-04T10:05:08Z</time>
      </trkpt>
      <trkpt lat="48.95906" lon="2.11576">
        <ele>26.37</ele>
        <time>2024-12-04T10:05:20Z</time>
      </trkpt>
      <trkpt lat="48.95918" lon="2.1158">
        <ele>26.85</ele>
        <time>2024-12-04T10:05:28Z</time>
      </trkpt>
      <trkpt lat="48.95936" lon="2.11586">
        <ele>27.23</ele>
        <time>2024-12-04T10:05:40Z</time>
      </trkpt>
      <trkpt lat="48.95955" lon="2.11595">
        <ele>26.71</ele>
        <time>2024-12-04T10:05:54Z</time>
      </trkpt>
      <trkpt lat="48.95971" lon="2.116">
        <ele>27.15</ele>
        <time>2024-12-04T10:06:06Z</time>
      </trkpt>
      <trkpt lat="48.95988" lon="2.11605">
        <ele>27.48</ele>
        <time>2024-12-04T10:06:18Z</time>
      </trkpt>
      <trkpt lat="48.96005" lon="2.11612">
        <ele>27.3</ele>
        <time>2024-12-04T10:06:31Z</time>
      </trkpt>
      <trkpt lat="48.9602" lon="2.11617">
        <ele>27.01</ele>
        <time>2024-12-04T10:06:43Z</time>
      </trkpt>
      <trkpt lat="48.96034" lon="2.11622">
        <ele>27.11</ele>
        <time>2024-12-04T10:06:54Z</time>
      </trkpt>
      <trkpt lat="48.96052" lon="2.11626">
        <ele>26.13</ele>
        <time>2024-12-04T10:07:07Z</time>
      </trkpt>
      <trkpt lat="48.96065" lon="2.11631">
        <ele>25.56</ele>
        <time>2024-12-04T10:07:16Z</time>
      </trkpt>
      <trkpt lat="48.96079" lon="2.11637">
        <ele>25.41</ele>
        <time>2024-12-04T10:07:28Z</time>
      </trkpt>
      <trkpt lat="48.96087" lon="2.1164">
        <ele>26.07</ele>
        <time>2024-12-04T10:07:34Z</time>
      </trkpt>
      <trkpt lat="48.96089" lon="2.1164">
        <ele>25.64</ele>
        <time>2024-12-04T10:07:35Z</time>
      </trkpt>
      <trkpt lat="48.96101" lon="2.11645">
        <ele>25.93</ele>
        <time>2024-12-04T10:07:42Z</time>
      </trkpt>
      <trkpt lat="48.96102" lon="2.11645">
        <ele>25.79</ele>
        <time>2024-12-04T10:07:43Z</time>
      </trkpt>
      <trkpt lat="48.96104" lon="2.11646">
        <ele>25.31</ele>
        <time>2024-12-04T10:07:44Z</time>
      </trkpt>
      <trkpt lat="48.96105" lon="2.11646">
        <ele>25.42</ele>
        <time>2024-12-04T10:07:45Z</time>
      </trkpt>
      <trkpt lat="48.96107" lon="2.11647">
        <ele>25.55</ele>
        <time>2024-12-04T10:07:46Z</time>
      </trkpt>
      <trkpt lat="48.96109" lon="2.11647">
        <ele>25.96</ele>
        <time>2024-12-04T10:07:47Z</time>
      </trkpt>
      <trkpt lat="48.9611" lon="2.11648">
        <ele>26.09</ele>
        <time>2024-12-04T10:07:48Z</time>
      </trkpt>
      <trkpt lat="48.96111" lon="2.11648">
        <ele>25.64</ele>
        <time>2024-12-04T10:07:49Z</time>
      </trkpt>
      <trkpt lat="48.96122" lon="2.11651">
        <ele>25.7</ele>
        <time>2024-12-04T10:07:57Z</time>
      </trkpt>
      <trkpt lat="48.96132" lon="2.11654">
        <ele>25.95</ele>
        <time>2024-12-04T10:08:06Z</time>
      </trkpt>
      <trkpt lat="48.96136" lon="2.11656">
        <ele>25.69</ele>
        <time>2024-12-04T10:08:09Z</time>
      </trkpt>
      <trkpt lat="48.96137" lon="2.11656">
        <ele>26.3</ele>
        <time>2024-12-04T10:08:10Z</time>
      </trkpt>
      <trkpt lat="48.9615" lon="2.1166">
        <ele>26.05</ele>
        <time>2024-12-04T10:08:19Z</time>
      </trkpt>
      <trkpt lat="48.96152" lon="2.11661">
        <ele>26.76</ele>
        <time>2024-12-04T10:08:21Z</time>
      </trkpt>
      <trkpt lat="48.96168" lon="2.11667">
        <ele>26.69</ele>
        <time>2024-12-04T10:08:31Z</time>
      </trkpt>
      <trkpt lat="48.96183" lon="2.11673">
        <ele>26.79</ele>
        <time>2024-12-04T10:08:39Z</time>
      </trkpt>
      <trkpt lat="48.96185" lon="2.11673">
        <ele>26.71</ele>
        <time>2024-12-04T10:08:40Z</time>
      </trkpt>
      <trkpt lat="48.96194" lon="2.11677">
        <ele>27.01</ele>
        <time>2024-12-04T10:08:47Z</time>
      </trkpt>
      <trkpt lat="48.96208" lon="2.11684">
        <ele>27.34</ele>
        <time>2024-12-04T10:08:58Z</time>
      </trkpt>
      <trkpt lat="48.9622" lon="2.11688">
        <ele>27.13</ele>
        <time>2024-12-04T10:09:06Z</time>
      </trkpt>
      <trkpt lat="48.96238" lon="2.11696">
        <ele>27.65</ele>
        <time>2024-12-04T10:09:17Z</time>
      </trkpt>
      <trkpt lat="48.96255" lon="2.11697">
        <ele>27.81</ele>
        <time>2024-12-04T10:09:29Z</time>
      </trkpt>
      <trkpt lat="48.96267" lon="2.11697">
        <ele>28.48</ele>
        <time>2024-12-04T10:09:37Z</time>
      </trkpt>
      <trkpt lat="48.96276" lon="2.11701">
        <ele>28.83</ele>
        <time>2024-12-04T10:09:49Z</time>
      </trkpt>
      <trkpt lat="48.96277" lon="2.11702">
        <ele>29.29</ele>
        <time>2024-12-04T10:10:11Z</time>
      </trkpt>
      <trkpt lat="48.96274" lon="2.11702">
        <ele>28.74</ele>
        <time>2024-12-04T10:10:30Z</time>
      </trkpt>
      <trkpt lat="48.96276" lon="2.11698">
        <ele>29.22</ele>
        <time>2024-12-04T10:10:45Z</time>
      </trkpt>
      <trkpt lat="48.96282" lon="2.11701">
        <ele>28.74</ele>
        <time>2024-12-04T10:10:59Z</time>
      </trkpt>
      <trkpt lat="48.96284" lon="2.11703">
        <ele>28.61</ele>
        <time>2024-12-04T10:11:01Z</time>
      </trkpt>
      <trkpt lat="48.96295" lon="2.11706">
        <ele>29.32</ele>
        <time>2024-12-04T10:11:11Z</time>
      </trkpt>
      <trkpt lat="48.96303" lon="2.11703">
        <ele>29.56</ele>
        <time>2024-12-04T10:11:24Z</time>
      </trkpt>
      <trkpt lat="48.96307" lon="2.117">
        <ele>29.84</ele>
        <time>2024-12-04T10:11:29Z</time>
      </trkpt>
      <trkpt lat="48.96321" lon="2.11692">
        <ele>29.93</ele>
        <time>2024-12-04T10:11:43Z</time>
      </trkpt>
      <trkpt lat="48.96333" lon="2.11689">
        <ele>30.45</ele>
        <time>2024-12-04T10:11:55Z</time>
      </trkpt>
      <trkpt lat="48.9634" lon="2.11678">
        <ele>30.03</ele>
        <time>2024-12-04T10:12:04Z</time>
      </trkpt>
      <trkpt lat="48.96353" lon="2.11664">
        <ele>29.81</ele>
        <time>2024-12-04T10:12:20Z</time>
      </trkpt>
      <trkpt lat="48.96357" lon="2.11659">
        <ele>29.47</ele>
        <time>2024-12-04T10:12:24Z</time>
      </trkpt>
      <trkpt lat="48.96367" lon="2.11648">
        <ele>29.96</ele>
        <time>2024-12-04T10:12:32Z</time>
      </trkpt>
      <trkpt lat="48.96376" lon="2.11639">
        <ele>30.1</ele>
        <time>2024-12-04T10:12:39Z</time>
      </trkpt>
      <trkpt lat="48.96384" lon="2.11632">
        <ele>29.6</ele>
        <time>2024-12-04T10:12:54Z</time>
      </trkpt>
      <trkpt lat="48.96398" lon="2.11629">
        <ele>29.43</ele>
        <time>2024-12-04T10:13:06Z</time>
      </trkpt>
      <trkpt lat="48.964" lon="2.11629">
        <ele>29.85</ele>
        <time>2024-12-04T10:13:08Z</time>
      </trkpt>
      <trkpt lat="48.96402" lon="2.11629">
        <ele>29.84</ele>
        <time>2024-12-04T10:13:09Z</time>
      </trkpt>
      <trkpt lat="48.96418" lon="2.11626">
        <ele>29.64</ele>
        <time>2024-12-04T10:13:19Z</time>
      </trkpt>
      <trkpt lat="48.9643" lon="2.11626">
        <ele>29.66</ele>
        <time>2024-12-04T10:13:29Z</time>
      </trkpt>
      <trkpt lat="48.96432" lon="2.11626">
        <ele>30.39</ele>
        <time>2024-12-04T10:13:30Z</time>
      </trkpt>
      <trkpt lat="48.96435" lon="2.11625">
        <ele>30.01</ele>
        <time>2024-12-04T10:13:32Z</time>
      </trkpt>
      <trkpt lat="48.96445" lon="2.11619">
        <ele>29.66</ele>
        <time>2024-12-04T10:13:39Z</time>
      </trkpt>
      <trkpt lat="48.96447" lon="2.11617">
        <ele>30.08</ele>
        <time>2024-12-04T10:13:41Z</time>
      </trkpt>
      <trkpt lat="48.96457" lon="2.11599">
        <ele>29.67</ele>
        <time>2024-12-04T10:13:52Z</time>
      </trkpt>
      <trkpt lat="48.96458" lon="2.11595">
        <ele>29.96</ele>
        <time>2024-12-04T10:13:54Z</time>
      </trkpt>
      <trkpt lat="48.96464" lon="2.11576">
        <ele>29.25</ele>
        <time>2024-12-04T10:14:05Z</time>
      </trkpt>
      <trkpt lat="48.96467" lon="2.11557">
        <ele>29.69</ele>
        <time>2024-12-04T10:14:15Z</time>
      </trkpt>
      <trkpt lat="48.9647" lon="2.11546">
        <ele>28.8</ele>
        <time>2024-12-04T10:14:21Z</time>
      </trkpt>
      <trkpt lat="48.96475" lon="2.11523">
        <ele>28.77</ele>
        <time>2024-12-04T10:14:33Z</time>
      </trkpt>
      <trkpt lat="48.96475" lon="2.11509">
        <ele>27.57</ele>
        <time>2024-12-04T10:14:39Z</time>
      </trkpt>
      <trkpt lat="48.9648" lon="2.11498">
        <ele>27.66</ele>
        <time>2024-12-04T10:14:45Z</time>
      </trkpt>
      <trkpt lat="48.9648" lon="2.11483">
        <ele>27.73</ele>
        <time>2024-12-04T10:14:51Z</time>
      </trkpt>
      <trkpt lat="48.96481" lon="2.1148">
        <ele>27.53</ele>
        <time>2024-12-04T10:14:52Z</time>
      </trkpt>
      <trkpt lat="48.96482" lon="2.11478">
        <ele>26.39</ele>
        <time>2024-12-04T10:14:53Z</time>
      </trkpt>
      <trkpt lat="48.96483" lon="2.11477">
        <ele>26.35</ele>
        <time>2024-12-04T10:14:54Z</time>
      </trkpt>
      <trkpt lat="48.96483" lon="2.11475">
        <ele>26.6</ele>
        <time>2024-12-04T10:14:55Z</time>
      </trkpt>
      <trkpt lat="48.96484" lon="2.11472">
        <ele>26.42</ele>
        <time>2024-12-04T10:14:56Z</time>
      </trkpt>
      <trkpt lat="48.96484" lon="2.1147">
        <ele>26.01</ele>
        <time>2024-12-04T10:14:57Z</time>
      </trkpt>
      <trkpt lat="48.96487" lon="2.11459">
        <ele>26.61</ele>
        <time>2024-12-04T10:15:02Z</time>
      </trkpt>
      <trkpt lat="48.96489" lon="2.11439">
        <ele>26.53</ele>
        <time>2024-12-04T10:15:13Z</time>
      </trkpt>
      <trkpt lat="48.96495" lon="2.11416">
        <ele>25.48</ele>
        <time>2024-12-04T10:15:23Z</time>
      </trkpt>
      <trkpt lat="48.96501" lon="2.11412">
        <ele>25.35</ele>
        <time>2024-12-04T10:15:29Z</time>
      </trkpt>
      <trkpt lat="48.96504" lon="2.11414">
        <ele>25.92</ele>
        <time>2024-12-04T10:15:33Z</time>
      </trkpt>
      <trkpt lat="48.96505" lon="2.11415">
        <ele>25.9</ele>
        <time>2024-12-04T10:15:34Z</time>
      </trkpt>
      <trkpt lat="48.96513" lon="2.11418">
        <ele>26.21</ele>
        <time>2024-12-04T10:15:44Z</time>
      </trkpt>
      <trkpt lat="48.96524" lon="2.11426">
        <ele>27.23</ele>
        <time>2024-12-04T10:15:56Z</time>
      </trkpt>
      <trkpt lat="48.96534" lon="2.1143">
        <ele>27.33</ele>
        <time>2024-12-04T10:16:03Z</time>
      </trkpt>
      <trkpt lat="48.96537" lon="2.1143">
        <ele>27.24</ele>
        <time>2024-12-04T10:16:05Z</time>
      </trkpt>
      <trkpt lat="48.96551" lon="2.11434">
        <ele>26.87</ele>
        <time>2024-12-04T10:16:17Z</time>
      </trkpt>
      <trkpt lat="48.96562" lon="2.11441">
        <ele>27.77</ele>
        <time>2024-12-04T10:16:29Z</time>
      </trkpt>
      <trkpt lat="48.96577" lon="2.11447">
        <ele>28.1</ele>
        <time>2024-12-04T10:16:42Z</time>
      </trkpt>
      <trkpt lat="48.96594" lon="2.11455">
        <ele>28.03</ele>
        <time>2024-12-04T10:16:55Z</time>
      </trkpt>
      <trkpt lat="48.96605" lon="2.11466">
        <ele>28.25</ele>
        <time>2024-12-04T10:17:09Z</time>
      </trkpt>
      <trkpt lat="48.96608" lon="2.11474">
        <ele>28.29</ele>
        <time>2024-12-04T10:17:19Z</time>
      </trkpt>
      <trkpt lat="48.96615" lon="2.11495">
        <ele>27.37</ele>
        <time>2024-12-04T10:17:33Z</time>
      </trkpt>
      <trkpt lat="48.96615" lon="2.1152">
        <ele>27.57</ele>
        <time>2024-12-04T10:17:48Z</time>
      </trkpt>
      <trkpt lat="48.96619" lon="2.11554">
        <ele>27.03</ele>
        <time>2024-12-04T10:18:05Z</time>
      </trkpt>
      <trkpt lat="48.96621" lon="2.1157">
        <ele>26.67</ele>
        <time>2024-12-04T10:18:11Z</time>
      </trkpt>
      <trkpt lat="48.96621" lon="2.11572">
        <ele>27.08</ele>
        <time>2024-12-04T10:18:12Z</time>
      </trkpt>
      <trkpt lat="48.9662" lon="2.1158">
        <ele>26.58</ele>
        <time>2024-12-04T10:18:15Z</time>
      </trkpt>
      <trkpt lat="48.9662" lon="2.11581">
        <ele>26.66</ele>
        <time>2024-12-04T10:18:16Z</time>
      </trkpt>
      <trkpt lat="48.96618" lon="2.11619">
        <ele>26.14</ele>
        <time>2024-12-04T10:18:33Z</time>
      </trkpt>
      <trkpt lat="48.96621" lon="2.11647">
        <ele>25.98</ele>
        <time>2024-12-04T10:18:47Z</time>
      </trkpt>
      <trkpt lat="48.96623" lon="2.11675">
        <ele>26.03</ele>
        <time>2024-12-04T10:19:02Z</time>
      </trkpt>
      <trkpt lat="48.96624" lon="2.11694">
        <ele>25.74</ele>
        <time>2024-12-04T10:19:12Z</time>
      </trkpt>
      <trkpt lat="48.96623" lon="2.11721">
        <ele>25.23</ele>
        <time>2024-12-04T10:19:25Z</time>
      </trkpt>
      <trkpt lat="48.96621" lon="2.11746">
        <ele>25.43</ele>
        <time>2024-12-04T10:19:38Z</time>
      </trkpt>
      <trkpt lat="48.96622" lon="2.11753">
        <ele>25.55</ele>
        <time>2024-12-04T10:19:41Z</time>
      </trkpt>
      <trkpt lat="48.96624" lon="2.11775">
        <ele>25</ele>
        <time>2024-12-04T10:19:52Z</time>
      </trkpt>
      <trkpt lat="48.96627" lon="2.11802">
        <ele>25.61</ele>
        <time>2024-12-04T10:20:05Z</time>
      </trkpt>
      <trkpt lat="48.96628" lon="2.11829">
        <ele>25.06</ele>
        <time>2024-12-04T10:20:17Z</time>
      </trkpt>
      <trkpt lat="48.96626" lon="2.11832">
        <ele>24.54</ele>
        <time>2024-12-04T10:20:28Z</time>
      </trkpt>
      <trkpt lat="48.96625" lon="2.11834">
        <ele>25.69</ele>
        <time>2024-12-04T10:20:46Z</time>
      </trkpt>
      <trkpt lat="48.96625" lon="2.11836">
        <ele>25.11</ele>
        <time>2024-12-04T10:21:03Z</time>
      </trkpt>
      <trkpt lat="48.96625" lon="2.11836">
        <ele>24.33</ele>
        <time>2024-12-04T10:21:19Z</time>
      </trkpt>
      <trkpt lat="48.96625" lon="2.11836">
        <ele>24.34</ele>
        <time>2024-12-04T10:21:20Z</time>
      </trkpt>
      <trkpt lat="48.96626" lon="2.11836">
        <ele>25.73</ele>
        <time>2024-12-04T10:21:32Z</time>
      </trkpt>
      <trkpt lat="48.96626" lon="2.1184">
        <ele>26.26</ele>
        <time>2024-12-04T10:21:40Z</time>
      </trkpt>
      <trkpt lat="48.96625" lon="2.11846">
        <ele>26.08</ele>
        <time>2024-12-04T10:21:43Z</time>
      </trkpt>
      <trkpt lat="48.96623" lon="2.1185">
        <ele>25.47</ele>
        <time>2024-12-04T10:21:46Z</time>
      </trkpt>
      <trkpt lat="48.96623" lon="2.11864">
        <ele>25.48</ele>
        <time>2024-12-04T10:21:52Z</time>
      </trkpt>
      <trkpt lat="48.96624" lon="2.11882">
        <ele>25.75</ele>
        <time>2024-12-04T10:22:01Z</time>
      </trkpt>
      <trkpt lat="48.96621" lon="2.11895">
        <ele>25.3</ele>
        <time>2024-12-04T10:22:08Z</time>
      </trkpt>
      <trkpt lat="48.96619" lon="2.11906">
        <ele>25.84</ele>
        <time>2024-12-04T10:22:17Z</time>
      </trkpt>
      <trkpt lat="48.96618" lon="2.1191">
        <ele>25.49</ele>
        <time>2024-12-04T10:22:19Z</time>
      </trkpt>
      <trkpt lat="48.96615" lon="2.11921">
        <ele>25.56</ele>
        <time>2024-12-04T10:22:26Z</time>
      </trkpt>
      <trkpt lat="48.96614" lon="2.11926">
        <ele>25.12</ele>
        <time>2024-12-04T10:22:29Z</time>
      </trkpt>
      <trkpt lat="48.96614" lon="2.11936">
        <ele>24.53</ele>
        <time>2024-12-04T10:22:34Z</time>
      </trkpt>
      <trkpt lat="48.96612" lon="2.11947">
        <ele>25.63</ele>
        <time>2024-12-04T10:22:39Z</time>
      </trkpt>
      <trkpt lat="48.96609" lon="2.1196">
        <ele>24.64</ele>
        <time>2024-12-04T10:22:46Z</time>
      </trkpt>
      <trkpt lat="48.96604" lon="2.11985">
        <ele>24.43</ele>
        <time>2024-12-04T10:22:59Z</time>
      </trkpt>
      <trkpt lat="48.96603" lon="2.12001">
        <ele>24.77</ele>
        <time>2024-12-04T10:23:08Z</time>
      </trkpt>
      <trkpt lat="48.96601" lon="2.12019">
        <ele>24.2</ele>
        <time>2024-12-04T10:23:19Z</time>
      </trkpt>
      <trkpt lat="48.96602" lon="2.12029">
        <ele>23.97</ele>
        <time>2024-12-04T10:23:25Z</time>
      </trkpt>
      <trkpt lat="48.96605" lon="2.12041">
        <ele>23.74</ele>
        <time>2024-12-04T10:23:35Z</time>
      </trkpt>
      <trkpt lat="48.9661" lon="2.12067">
        <ele>23.31</ele>
        <time>2024-12-04T10:23:52Z</time>
      </trkpt>
      <trkpt lat="48.96618" lon="2.12094">
        <ele>22.69</ele>
        <time>2024-12-04T10:24:07Z</time>
      </trkpt>
      <trkpt lat="48.96622" lon="2.12122">
        <ele>21.81</ele>
        <time>2024-12-04T10:24:21Z</time>
      </trkpt>
      <trkpt lat="48.9663" lon="2.1215">
        <ele>21.83</ele>
        <time>2024-12-04T10:24:35Z</time>
      </trkpt>
      <trkpt lat="48.96631" lon="2.12156">
        <ele>21.23</ele>
        <time>2024-12-04T10:24:38Z</time>
      </trkpt>
      <trkpt lat="48.96634" lon="2.12191">
        <ele>21.4</ele>
        <time>2024-12-04T10:24:56Z</time>
      </trkpt>
      <trkpt lat="48.96628" lon="2.12207">
        <ele>20.3</ele>
        <time>2024-12-04T10:25:10Z</time>
      </trkpt>
      <trkpt lat="48.96627" lon="2.12219">
        <ele>20.82</ele>
        <time>2024-12-04T10:25:29Z</time>
      </trkpt>
      <trkpt lat="48.96624" lon="2.12225">
        <ele>21.13</ele>
        <time>2024-12-04T10:25:34Z</time>
      </trkpt>
      <trkpt lat="48.96621" lon="2.12234">
        <ele>20.47</ele>
        <time>2024-12-04T10:25:45Z</time>
      </trkpt>
      <trkpt lat="48.96621" lon="2.12244">
        <ele>20.06</ele>
        <time>2024-12-04T10:25:59Z</time>
      </trkpt>
      <trkpt lat="48.96627" lon="2.12268">
        <ele>19.39</ele>
        <time>2024-12-04T10:26:16Z</time>
      </trkpt>
      <trkpt lat="48.96636" lon="2.12299">
        <ele>19.11</ele>
        <time>2024-12-04T10:26:31Z</time>
      </trkpt>
      <trkpt lat="48.96646" lon="2.12324">
        <ele>17.75</ele>
        <time>2024-12-04T10:26:44Z</time>
      </trkpt>
      <trkpt lat="48.96655" lon="2.12349">
        <ele>16.93</ele>
        <time>2024-12-04T10:26:58Z</time>
      </trkpt>
      <trkpt lat="48.96656" lon="2.12354">
        <ele>17.61</ele>
        <time>2024-12-04T10:27:01Z</time>
      </trkpt>
      <trkpt lat="48.96664" lon="2.12374">
        <ele>16.65</ele>
        <time>2024-12-04T10:27:13Z</time>
      </trkpt>
      <trkpt lat="48.9667" lon="2.12392">
        <ele>16.3</ele>
        <time>2024-12-04T10:27:27Z</time>
      </trkpt>
      <trkpt lat="48.96681" lon="2.12411">
        <ele>15.92</ele>
        <time>2024-12-04T10:27:41Z</time>
      </trkpt>
      <trkpt lat="48.96693" lon="2.12437">
        <ele>14.81</ele>
        <time>2024-12-04T10:27:55Z</time>
      </trkpt>
      <trkpt lat="48.96699" lon="2.1246">
        <ele>14.87</ele>
        <time>2024-12-04T10:28:06Z</time>
      </trkpt>
      <trkpt lat="48.9671" lon="2.12491">
        <ele>13.7</ele>
        <time>2024-12-04T10:28:23Z</time>
      </trkpt>
      <trkpt lat="48.96723" lon="2.12517">
        <ele>13.94</ele>
        <time>2024-12-04T10:28:37Z</time>
      </trkpt>
      <trkpt lat="48.96726" lon="2.12524">
        <ele>13.45</ele>
        <time>2024-12-04T10:28:40Z</time>
      </trkpt>
      <trkpt lat="48.9673" lon="2.12537">
        <ele>13.12</ele>
        <time>2024-12-04T10:28:47Z</time>
      </trkpt>
      <trkpt lat="48.96733" lon="2.12541">
        <ele>13.24</ele>
        <time>2024-12-04T10:28:49Z</time>
      </trkpt>
      <trkpt lat="48.96739" lon="2.12554">
        <ele>13.23</ele>
        <time>2024-12-04T10:28:56Z</time>
      </trkpt>
      <trkpt lat="48.96742" lon="2.12563">
        <ele>13.13</ele>
        <time>2024-12-04T10:29:18Z</time>
      </trkpt>
      <trkpt lat="48.96742" lon="2.12563">
        <ele>13.2</ele>
        <time>2024-12-04T10:29:22Z</time>
      </trkpt>
      <trkpt lat="48.96745" lon="2.1257">
        <ele>13.33</ele>
        <time>2024-12-04T10:29:44Z</time>
      </trkpt>
      <trkpt lat="48.96752" lon="2.1258">
        <ele>12.97</ele>
        <time>2024-12-04T10:29:59Z</time>
      </trkpt>
      <trkpt lat="48.96758" lon="2.12592">
        <ele>12.68</ele>
        <time>2024-12-04T10:30:09Z</time>
      </trkpt>
      <trkpt lat="48.9676" lon="2.12607">
        <ele>13.25</ele>
        <time>2024-12-04T10:30:21Z</time>
      </trkpt>
      <trkpt lat="48.96753" lon="2.12617">
        <ele>13.2</ele>
        <time>2024-12-04T10:30:33Z</time>
      </trkpt>
      <trkpt lat="48.96748" lon="2.1262">
        <ele>13.46</ele>
        <time>2024-12-04T10:30:38Z</time>
      </trkpt>
      <trkpt lat="48.96734" lon="2.12624">
        <ele>13.03</ele>
        <time>2024-12-04T10:30:51Z</time>
      </trkpt>
      <trkpt lat="48.96732" lon="2.12627">
        <ele>13.31</ele>
        <time>2024-12-04T10:30:54Z</time>
      </trkpt>
      <trkpt lat="48.96719" lon="2.1264">
        <ele>13.3</ele>
        <time>2024-12-04T10:31:07Z</time>
      </trkpt>
      <trkpt lat="48.96707" lon="2.12658">
        <ele>13.81</ele>
        <time>2024-12-04T10:31:19Z</time>
      </trkpt>
      <trkpt lat="48.96695" lon="2.12673">
        <ele>14.19</ele>
        <time>2024-12-04T10:31:33Z</time>
      </trkpt>
      <trkpt lat="48.9668" lon="2.12691">
        <ele>13.98</ele>
        <time>2024-12-04T10:31:48Z</time>
      </trkpt>
      <trkpt lat="48.96669" lon="2.12699">
        <ele>13.67</ele>
        <time>2024-12-04T10:31:56Z</time>
      </trkpt>
      <trkpt lat="48.96665" lon="2.12705">
        <ele>14.06</ele>
        <time>2024-12-04T10:31:59Z</time>
      </trkpt>
      <trkpt lat="48.96661" lon="2.1271">
        <ele>13.75</ele>
        <time>2024-12-04T10:32:02Z</time>
      </trkpt>
      <trkpt lat="48.96649" lon="2.12731">
        <ele>14.37</ele>
        <time>2024-12-04T10:32:16Z</time>
      </trkpt>
      <trkpt lat="48.96636" lon="2.12743">
        <ele>14.29</ele>
        <time>2024-12-04T10:32:29Z</time>
      </trkpt>
      <trkpt lat="48.96628" lon="2.12751">
        <ele>14.52</ele>
        <time>2024-12-04T10:32:44Z</time>
      </trkpt>
      <trkpt lat="48.96615" lon="2.12756">
        <ele>14.38</ele>
        <time>2024-12-04T10:32:56Z</time>
      </trkpt>
      <trkpt lat="48.96596" lon="2.12762">
        <ele>14.97</ele>
        <time>2024-12-04T10:33:11Z</time>
      </trkpt>
      <trkpt lat="48.96588" lon="2.12771">
        <ele>14.76</ele>
        <time>2024-12-04T10:33:20Z</time>
      </trkpt>
      <trkpt lat="48.96583" lon="2.12789">
        <ele>15.19</ele>
        <time>2024-12-04T10:33:32Z</time>
      </trkpt>
      <trkpt lat="48.96578" lon="2.12813">
        <ele>15.17</ele>
        <time>2024-12-04T10:33:45Z</time>
      </trkpt>
      <trkpt lat="48.9658" lon="2.1283">
        <ele>14.86</ele>
        <time>2024-12-04T10:33:58Z</time>
      </trkpt>
      <trkpt lat="48.96588" lon="2.12853">
        <ele>15.37</ele>
        <time>2024-12-04T10:34:14Z</time>
      </trkpt>
      <trkpt lat="48.96591" lon="2.12871">
        <ele>15.57</ele>
        <time>2024-12-04T10:34:24Z</time>
      </trkpt>
      <trkpt lat="48.9659" lon="2.12878">
        <ele>15.58</ele>
        <time>2024-12-04T10:34:27Z</time>
      </trkpt>
      <trkpt lat="48.96589" lon="2.12898">
        <ele>15.69</ele>
        <time>2024-12-04T10:34:40Z</time>
      </trkpt>
      <trkpt lat="48.96585" lon="2.12933">
        <ele>15.55</ele>
        <time>2024-12-04T10:34:54Z</time>
      </trkpt>
      <trkpt lat="48.96583" lon="2.12957">
        <ele>16</ele>
        <time>2024-12-04T10:35:05Z</time>
      </trkpt>
      <trkpt lat="48.96578" lon="2.1297">
        <ele>16.09</ele>
        <time>2024-12-04T10:35:13Z</time>
      </trkpt>
      <trkpt lat="48.96574" lon="2.12982">
        <ele>15.88</ele>
        <time>2024-12-04T10:35:20Z</time>
      </trkpt>
      <trkpt lat="48.96573" lon="2.12997">
        <ele>16.01</ele>
        <time>2024-12-04T10:35:28Z</time>
      </trkpt>
      <trkpt lat="48.96574" lon="2.13024">
        <ele>15.83</ele>
        <time>2024-12-04T10:35:42Z</time>
      </trkpt>
      <trkpt lat="48.96563" lon="2.13039">
        <ele>15.58</ele>
        <time>2024-12-04T10:35:54Z</time>
      </trkpt>
      <trkpt lat="48.9656" lon="2.13042">
        <ele>15.96</ele>
        <time>2024-12-04T10:35:57Z</time>
      </trkpt>
      <trkpt lat="48.96554" lon="2.13053">
        <ele>16.16</ele>
        <time>2024-12-04T10:36:05Z</time>
      </trkpt>
      <trkpt lat="48.96544" lon="2.13085">
        <ele>16.54</ele>
        <time>2024-12-04T10:36:21Z</time>
      </trkpt>
      <trkpt lat="48.96537" lon="2.13107">
        <ele>16.55</ele>
        <time>2024-12-04T10:36:35Z</time>
      </trkpt>
      <trkpt lat="48.96536" lon="2.13109">
        <ele>16.43</ele>
        <time>2024-12-04T10:36:36Z</time>
      </trkpt>
      <trkpt lat="48.96526" lon="2.13129">
        <ele>16.09</ele>
        <time>2024-12-04T10:36:48Z</time>
      </trkpt>
      <trkpt lat="48.96519" lon="2.13143">
        <ele>16.45</ele>
        <time>2024-12-04T10:36:56Z</time>
      </trkpt>
      <trkpt lat="48.96511" lon="2.13155">
        <ele>16.81</ele>
        <time>2024-12-04T10:37:04Z</time>
      </trkpt>
      <trkpt lat="48.96499" lon="2.13174">
        <ele>16.78</ele>
        <time>2024-12-04T10:37:16Z</time>
      </trkpt>
      <trkpt lat="48.96492" lon="2.13185">
        <ele>17.39</ele>
        <time>2024-12-04T10:37:28Z</time>
      </trkpt>
      <trkpt lat="48.96486" lon="2.13196">
        <ele>16.39</ele>
        <time>2024-12-04T10:37:36Z</time>
      </trkpt>
      <trkpt lat="48.96478" lon="2.13208">
        <ele>17.02</ele>
        <time>2024-12-04T10:37:44Z</time>
      </trkpt>
      <trkpt lat="48.96473" lon="2.13217">
        <ele>17.42</ele>
        <time>2024-12-04T10:37:49Z</time>
      </trkpt>
      <trkpt lat="48.96468" lon="2.13218">
        <ele>17.27</ele>
        <time>2024-12-04T10:37:54Z</time>
      </trkpt>
      <trkpt lat="48.96463" lon="2.13225">
        <ele>17.84</ele>
        <time>2024-12-04T10:38:14Z</time>
      </trkpt>
      <trkpt lat="48.9646" lon="2.13228">
        <ele>17.86</ele>
        <time>2024-12-04T10:38:32Z</time>
      </trkpt>
      <trkpt lat="48.96452" lon="2.13217">
        <ele>17.01</ele>
        <time>2024-12-04T10:38:44Z</time>
      </trkpt>
      <trkpt lat="48.96438" lon="2.132">
        <ele>18.48</ele>
        <time>2024-12-04T10:38:59Z</time>
      </trkpt>
      <trkpt lat="48.96432" lon="2.13194">
        <ele>18.71</ele>
        <time>2024-12-04T10:39:05Z</time>
      </trkpt>
      <trkpt lat="48.96427" lon="2.13189">
        <ele>18.49</ele>
        <time>2024-12-04T10:39:09Z</time>
      </trkpt>
      <trkpt lat="48.96416" lon="2.13172">
        <ele>18.33</ele>
        <time>2024-12-04T10:39:19Z</time>
      </trkpt>
      <trkpt lat="48.96405" lon="2.1316">
        <ele>19.33</ele>
        <time>2024-12-04T10:39:28Z</time>
      </trkpt>
      <trkpt lat="48.96404" lon="2.13159">
        <ele>19.18</ele>
        <time>2024-12-04T10:39:29Z</time>
      </trkpt>
      <trkpt lat="48.96394" lon="2.13142">
        <ele>18.84</ele>
        <time>2024-12-04T10:39:38Z</time>
      </trkpt>
      <trkpt lat="48.96381" lon="2.13123">
        <ele>18.97</ele>
        <time>2024-12-04T10:39:51Z</time>
      </trkpt>
      <trkpt lat="48.96371" lon="2.1311">
        <ele>19.05</ele>
        <time>2024-12-04T10:40:00Z</time>
      </trkpt>
      <trkpt lat="48.96361" lon="2.13095">
        <ele>18.79</ele>
        <time>2024-12-04T10:40:09Z</time>
      </trkpt>
      <trkpt lat="48.96355" lon="2.13087">
        <ele>18.53</ele>
        <time>2024-12-04T10:40:14Z</time>
      </trkpt>
      <trkpt lat="48.96346" lon="2.13079">
        <ele>19.49</ele>
        <time>2024-12-04T10:40:21Z</time>
      </trkpt>
      <trkpt lat="48.96343" lon="2.13076">
        <ele>19.51</ele>
        <time>2024-12-04T10:40:23Z</time>
      </trkpt>
      <trkpt lat="48.96337" lon="2.13065">
        <ele>18.76</ele>
        <time>2024-12-04T10:40:29Z</time>
      </trkpt>
      <trkpt lat="48.9633" lon="2.13053">
        <ele>18.7</ele>
        <time>2024-12-04T10:40:38Z</time>
      </trkpt>
      <trkpt lat="48.9632" lon="2.13037">
        <ele>18.77</ele>
        <time>2024-12-04T10:40:47Z</time>
      </trkpt>
      <trkpt lat="48.96303" lon="2.13013">
        <ele>18.75</ele>
        <time>2024-12-04T10:41:02Z</time>
      </trkpt>
      <trkpt lat="48.96301" lon="2.13009">
        <ele>18.19</ele>
        <time>2024-12-04T10:41:04Z</time>
      </trkpt>
      <trkpt lat="48.96294" lon="2.12999">
        <ele>18.69</ele>
        <time>2024-12-04T10:41:11Z</time>
      </trkpt>
      <trkpt lat="48.96282" lon="2.12988">
        <ele>18.73</ele>
        <time>2024-12-04T10:41:21Z</time>
      </trkpt>
      <trkpt lat="48.96276" lon="2.12981">
        <ele>18.52</ele>
        <time>2024-12-04T10:41:28Z</time>
      </trkpt>
      <trkpt lat="48.96264" lon="2.12963">
        <ele>18.27</ele>
        <time>2024-12-04T10:41:39Z</time>
      </trkpt>
      <trkpt lat="48.96261" lon="2.12957">
        <ele>18.33</ele>
        <time>2024-12-04T10:41:42Z</time>
      </trkpt>
      <trkpt lat="48.96256" lon="2.12946">
        <ele>17.84</ele>
        <time>2024-12-04T10:41:48Z</time>
      </trkpt>
      <trkpt lat="48.96245" lon="2.12936">
        <ele>17.97</ele>
        <time>2024-12-04T10:41:57Z</time>
      </trkpt>
      <trkpt lat="48.96236" lon="2.12924">
        <ele>18.31</ele>
        <time>2024-12-04T10:42:03Z</time>
      </trkpt>
      <trkpt lat="48.96221" lon="2.12905">
        <ele>17.62</ele>
        <time>2024-12-04T10:42:13Z</time>
      </trkpt>
      <trkpt lat="48.96212" lon="2.12893">
        <ele>17.9</ele>
        <time>2024-12-04T10:42:22Z</time>
      </trkpt>
      <trkpt lat="48.96207" lon="2.12887">
        <ele>18.06</ele>
        <time>2024-12-04T10:42:27Z</time>
      </trkpt>
      <trkpt lat="48.96194" lon="2.12876">
        <ele>17.99</ele>
        <time>2024-12-04T10:42:38Z</time>
      </trkpt>
      <trkpt lat="48.96193" lon="2.12874">
        <ele>18.22</ele>
        <time>2024-12-04T10:42:39Z</time>
      </trkpt>
      <trkpt lat="48.96188" lon="2.12868">
        <ele>17.88</ele>
        <time>2024-12-04T10:42:44Z</time>
      </trkpt>
      <trkpt lat="48.96187" lon="2.12864">
        <ele>17.52</ele>
        <time>2024-12-04T10:42:46Z</time>
      </trkpt>
      <trkpt lat="48.96182" lon="2.12856">
        <ele>17.8</ele>
        <time>2024-12-04T10:42:52Z</time>
      </trkpt>
      <trkpt lat="48.96172" lon="2.12847">
        <ele>17.63</ele>
        <time>2024-12-04T10:42:59Z</time>
      </trkpt>
      <trkpt lat="48.96158" lon="2.12824">
        <ele>17.29</ele>
        <time>2024-12-04T10:43:11Z</time>
      </trkpt>
      <trkpt lat="48.96152" lon="2.1281">
        <ele>17.34</ele>
        <time>2024-12-04T10:43:19Z</time>
      </trkpt>
      <trkpt lat="48.96143" lon="2.1281">
        <ele>17.47</ele>
        <time>2024-12-04T10:43:40Z</time>
      </trkpt>
      <trkpt lat="48.9614" lon="2.12805">
        <ele>17.43</ele>
        <time>2024-12-04T10:43:54Z</time>
      </trkpt>
      <trkpt lat="48.96141" lon="2.12802">
        <ele>17.29</ele>
        <time>2024-12-04T10:44:11Z</time>
      </trkpt>
      <trkpt lat="48.96143" lon="2.12805">
        <ele>17.49</ele>
        <time>2024-12-04T10:44:29Z</time>
      </trkpt>
      <trkpt lat="48.96139" lon="2.12811">
        <ele>17.6</ele>
        <time>2024-12-04T10:44:48Z</time>
      </trkpt>
      <trkpt lat="48.96139" lon="2.1281">
        <ele>18.25</ele>
        <time>2024-12-04T10:45:05Z</time>
      </trkpt>
      <trkpt lat="48.96134" lon="2.12802">
        <ele>17.82</ele>
        <time>2024-12-04T10:45:20Z</time>
      </trkpt>
      <trkpt lat="48.96124" lon="2.12803">
        <ele>18.69</ele>
        <time>2024-12-04T10:45:35Z</time>
      </trkpt>
      <trkpt lat="48.96118" lon="2.12802">
        <ele>18.33</ele>
        <time>2024-12-04T10:45:51Z</time>
      </trkpt>
      <trkpt lat="48.96113" lon="2.12796">
        <ele>18.48</ele>
        <time>2024-12-04T10:46:01Z</time>
      </trkpt>
      <trkpt lat="48.9611" lon="2.12788">
        <ele>18.73</ele>
        <time>2024-12-04T10:46:08Z</time>
      </trkpt>
      <trkpt lat="48.9611" lon="2.12774">
        <ele>19.32</ele>
        <time>2024-12-04T10:46:16Z</time>
      </trkpt>
      <trkpt lat="48.96108" lon="2.1277">
        <ele>18.96</ele>
        <time>2024-12-04T10:46:19Z</time>
      </trkpt>
      <trkpt lat="48.96101" lon="2.12753">
        <ele>29.57</ele>
        <time>2024-12-04T11:02:10Z</time>
      </trkpt>
    </trkseg>
  </trk>
</gpx>